<?xml version="1.0" encoding="UTF-8" standalone="no" ?>
<gpx xmlns="http://www.topografix.com/GPX/1/1" xmlns:xsi="http://www.w3.org/2001/XMLSchema-instance" xsi:schemaLocation="http://www.topografix.com/GPX/1/1 http://www.topografix.com/GPX/1/1/gpx.xsd" version="1.1" creator="VisuGPX - https://www.visugpx.com">
  <metadata>
    <name>Cascades du Hérisson</name>
    <desc><![CDATA[aller-retour]]></desc>
  </metadata>
  <trk>
    <name><![CDATA[24-JUIL-13 18:19:18]]></name>
    <trkseg>
      <trkpt lat="46.61485" lon="5.84632">
        <ele>491.37</ele>
        <time>2013-07-24T11:48:19Z</time>
      </trkpt>
      <trkpt lat="46.61485" lon="5.84632">
        <ele>489.45</ele>
        <time>2013-07-24T11:48:20Z</time>
      </trkpt>
      <trkpt lat="46.61484" lon="5.84633">
        <ele>491.37</ele>
        <time>2013-07-24T11:48:22Z</time>
      </trkpt>
      <trkpt lat="46.61485" lon="5.84634">
        <ele>512.52</ele>
        <time>2013-07-24T11:48:29Z</time>
      </trkpt>
      <trkpt lat="46.61485" lon="5.84634">
        <ele>512.52</ele>
        <time>2013-07-24T11:48:30Z</time>
      </trkpt>
      <trkpt lat="46.61486" lon="5.84633">
        <ele>512.52</ele>
        <time>2013-07-24T11:48:51Z</time>
      </trkpt>
      <trkpt lat="46.61487" lon="5.84634">
        <ele>512.04</ele>
        <time>2013-07-24T11:49:05Z</time>
      </trkpt>
      <trkpt lat="46.61488" lon="5.84632">
        <ele>512.52</ele>
        <time>2013-07-24T11:49:43Z</time>
      </trkpt>
      <trkpt lat="46.61488" lon="5.84634">
        <ele>513</ele>
        <time>2013-07-24T11:49:59Z</time>
      </trkpt>
      <trkpt lat="46.61487" lon="5.84634">
        <ele>512.52</ele>
        <time>2013-07-24T11:50:04Z</time>
      </trkpt>
      <trkpt lat="46.61476" lon="5.84632">
        <ele>512.52</ele>
        <time>2013-07-24T11:50:12Z</time>
      </trkpt>
      <trkpt lat="46.61472" lon="5.84639">
        <ele>513</ele>
        <time>2013-07-24T11:50:24Z</time>
      </trkpt>
      <trkpt lat="46.61466" lon="5.84658">
        <ele>513.96</ele>
        <time>2013-07-24T11:50:38Z</time>
      </trkpt>
      <trkpt lat="46.61464" lon="5.84676">
        <ele>513.96</ele>
        <time>2013-07-24T11:50:51Z</time>
      </trkpt>
      <trkpt lat="46.61462" lon="5.8468">
        <ele>513.96</ele>
        <time>2013-07-24T11:51:14Z</time>
      </trkpt>
      <trkpt lat="46.61466" lon="5.84681">
        <ele>513.96</ele>
        <time>2013-07-24T11:51:42Z</time>
      </trkpt>
      <trkpt lat="46.61466" lon="5.84678">
        <ele>514.44</ele>
        <time>2013-07-24T11:52:05Z</time>
      </trkpt>
      <trkpt lat="46.61465" lon="5.84679">
        <ele>514.44</ele>
        <time>2013-07-24T11:52:35Z</time>
      </trkpt>
      <trkpt lat="46.61471" lon="5.84675">
        <ele>514.92</ele>
        <time>2013-07-24T11:52:58Z</time>
      </trkpt>
      <trkpt lat="46.61463" lon="5.84673">
        <ele>514.92</ele>
        <time>2013-07-24T11:53:29Z</time>
      </trkpt>
      <trkpt lat="46.61457" lon="5.84685">
        <ele>514.44</ele>
        <time>2013-07-24T11:53:41Z</time>
      </trkpt>
      <trkpt lat="46.61453" lon="5.84701">
        <ele>515.4</ele>
        <time>2013-07-24T11:53:54Z</time>
      </trkpt>
      <trkpt lat="46.61451" lon="5.84718">
        <ele>515.4</ele>
        <time>2013-07-24T11:54:07Z</time>
      </trkpt>
      <trkpt lat="46.6145" lon="5.84737">
        <ele>515.4</ele>
        <time>2013-07-24T11:54:21Z</time>
      </trkpt>
      <trkpt lat="46.61454" lon="5.84739">
        <ele>515.88</ele>
        <time>2013-07-24T11:54:36Z</time>
      </trkpt>
      <trkpt lat="46.61449" lon="5.84744">
        <ele>515.88</ele>
        <time>2013-07-24T11:54:55Z</time>
      </trkpt>
      <trkpt lat="46.61446" lon="5.84755">
        <ele>516.37</ele>
        <time>2013-07-24T11:55:08Z</time>
      </trkpt>
      <trkpt lat="46.61445" lon="5.84774">
        <ele>516.85</ele>
        <time>2013-07-24T11:55:22Z</time>
      </trkpt>
      <trkpt lat="46.61444" lon="5.84783">
        <ele>516.85</ele>
        <time>2013-07-24T11:55:41Z</time>
      </trkpt>
      <trkpt lat="46.61449" lon="5.848">
        <ele>516.85</ele>
        <time>2013-07-24T11:56:09Z</time>
      </trkpt>
      <trkpt lat="46.61431" lon="5.84807">
        <ele>517.81</ele>
        <time>2013-07-24T11:56:24Z</time>
      </trkpt>
      <trkpt lat="46.61418" lon="5.84817">
        <ele>517.81</ele>
        <time>2013-07-24T11:56:41Z</time>
      </trkpt>
      <trkpt lat="46.61414" lon="5.84837">
        <ele>518.77</ele>
        <time>2013-07-24T11:56:58Z</time>
      </trkpt>
      <trkpt lat="46.61402" lon="5.84842">
        <ele>518.77</ele>
        <time>2013-07-24T11:57:13Z</time>
      </trkpt>
      <trkpt lat="46.61398" lon="5.8485">
        <ele>518.77</ele>
        <time>2013-07-24T11:57:34Z</time>
      </trkpt>
      <trkpt lat="46.61406" lon="5.84851">
        <ele>518.77</ele>
        <time>2013-07-24T11:57:56Z</time>
      </trkpt>
      <trkpt lat="46.61397" lon="5.84852">
        <ele>519.25</ele>
        <time>2013-07-24T11:58:18Z</time>
      </trkpt>
      <trkpt lat="46.61398" lon="5.84847">
        <ele>519.25</ele>
        <time>2013-07-24T11:58:45Z</time>
      </trkpt>
      <trkpt lat="46.61399" lon="5.84853">
        <ele>519.73</ele>
        <time>2013-07-24T11:59:12Z</time>
      </trkpt>
      <trkpt lat="46.61402" lon="5.84856">
        <ele>519.25</ele>
        <time>2013-07-24T11:59:40Z</time>
      </trkpt>
      <trkpt lat="46.614" lon="5.84857">
        <ele>519.73</ele>
        <time>2013-07-24T12:00:07Z</time>
      </trkpt>
      <trkpt lat="46.61398" lon="5.84853">
        <ele>520.21</ele>
        <time>2013-07-24T12:00:29Z</time>
      </trkpt>
      <trkpt lat="46.61394" lon="5.84865">
        <ele>520.21</ele>
        <time>2013-07-24T12:00:55Z</time>
      </trkpt>
      <trkpt lat="46.61393" lon="5.84876">
        <ele>520.21</ele>
        <time>2013-07-24T12:01:07Z</time>
      </trkpt>
      <trkpt lat="46.61388" lon="5.84892">
        <ele>521.17</ele>
        <time>2013-07-24T12:01:20Z</time>
      </trkpt>
      <trkpt lat="46.6138" lon="5.84909">
        <ele>522.13</ele>
        <time>2013-07-24T12:01:32Z</time>
      </trkpt>
      <trkpt lat="46.61373" lon="5.84927">
        <ele>522.61</ele>
        <time>2013-07-24T12:01:45Z</time>
      </trkpt>
      <trkpt lat="46.61365" lon="5.84934">
        <ele>522.13</ele>
        <time>2013-07-24T12:01:52Z</time>
      </trkpt>
      <trkpt lat="46.61357" lon="5.84955">
        <ele>522.61</ele>
        <time>2013-07-24T12:02:08Z</time>
      </trkpt>
      <trkpt lat="46.61356" lon="5.84959">
        <ele>522.13</ele>
        <time>2013-07-24T12:02:10Z</time>
      </trkpt>
      <trkpt lat="46.61353" lon="5.84979">
        <ele>523.09</ele>
        <time>2013-07-24T12:02:22Z</time>
      </trkpt>
      <trkpt lat="46.61346" lon="5.85004">
        <ele>523.09</ele>
        <time>2013-07-24T12:02:37Z</time>
      </trkpt>
      <trkpt lat="46.61338" lon="5.85029">
        <ele>524.06</ele>
        <time>2013-07-24T12:02:53Z</time>
      </trkpt>
      <trkpt lat="46.6133" lon="5.85046">
        <ele>524.54</ele>
        <time>2013-07-24T12:03:05Z</time>
      </trkpt>
      <trkpt lat="46.61324" lon="5.85067">
        <ele>525.02</ele>
        <time>2013-07-24T12:03:18Z</time>
      </trkpt>
      <trkpt lat="46.6132" lon="5.85092">
        <ele>525.98</ele>
        <time>2013-07-24T12:03:32Z</time>
      </trkpt>
      <trkpt lat="46.61322" lon="5.85108">
        <ele>526.46</ele>
        <time>2013-07-24T12:03:44Z</time>
      </trkpt>
      <trkpt lat="46.6132" lon="5.85121">
        <ele>526.46</ele>
        <time>2013-07-24T12:03:57Z</time>
      </trkpt>
      <trkpt lat="46.61323" lon="5.85138">
        <ele>526.46</ele>
        <time>2013-07-24T12:04:21Z</time>
      </trkpt>
      <trkpt lat="46.61327" lon="5.85156">
        <ele>527.42</ele>
        <time>2013-07-24T12:04:34Z</time>
      </trkpt>
      <trkpt lat="46.61335" lon="5.85177">
        <ele>529.34</ele>
        <time>2013-07-24T12:04:49Z</time>
      </trkpt>
      <trkpt lat="46.61342" lon="5.85203">
        <ele>529.82</ele>
        <time>2013-07-24T12:05:06Z</time>
      </trkpt>
      <trkpt lat="46.61352" lon="5.85222">
        <ele>530.79</ele>
        <time>2013-07-24T12:05:22Z</time>
      </trkpt>
      <trkpt lat="46.61361" lon="5.85232">
        <ele>531.27</ele>
        <time>2013-07-24T12:05:38Z</time>
      </trkpt>
      <trkpt lat="46.6136" lon="5.85244">
        <ele>531.75</ele>
        <time>2013-07-24T12:05:55Z</time>
      </trkpt>
      <trkpt lat="46.61363" lon="5.85253">
        <ele>531.27</ele>
        <time>2013-07-24T12:06:08Z</time>
      </trkpt>
      <trkpt lat="46.61367" lon="5.8526">
        <ele>531.75</ele>
        <time>2013-07-24T12:06:14Z</time>
      </trkpt>
      <trkpt lat="46.61373" lon="5.85268">
        <ele>533.19</ele>
        <time>2013-07-24T12:06:26Z</time>
      </trkpt>
      <trkpt lat="46.61377" lon="5.85281">
        <ele>533.67</ele>
        <time>2013-07-24T12:06:40Z</time>
      </trkpt>
      <trkpt lat="46.61381" lon="5.85286">
        <ele>535.11</ele>
        <time>2013-07-24T12:06:52Z</time>
      </trkpt>
      <trkpt lat="46.61386" lon="5.85292">
        <ele>536.55</ele>
        <time>2013-07-24T12:07:12Z</time>
      </trkpt>
      <trkpt lat="46.61389" lon="5.85302">
        <ele>537.51</ele>
        <time>2013-07-24T12:07:21Z</time>
      </trkpt>
      <trkpt lat="46.61391" lon="5.85324">
        <ele>538.96</ele>
        <time>2013-07-24T12:07:35Z</time>
      </trkpt>
      <trkpt lat="46.6139" lon="5.85346">
        <ele>541.36</ele>
        <time>2013-07-24T12:07:48Z</time>
      </trkpt>
      <trkpt lat="46.61392" lon="5.85355">
        <ele>541.84</ele>
        <time>2013-07-24T12:07:57Z</time>
      </trkpt>
      <trkpt lat="46.61394" lon="5.85366">
        <ele>543.28</ele>
        <time>2013-07-24T12:08:10Z</time>
      </trkpt>
      <trkpt lat="46.61393" lon="5.8538">
        <ele>544.72</ele>
        <time>2013-07-24T12:08:24Z</time>
      </trkpt>
      <trkpt lat="46.61396" lon="5.85397">
        <ele>547.61</ele>
        <time>2013-07-24T12:08:38Z</time>
      </trkpt>
      <trkpt lat="46.6138" lon="5.85406">
        <ele>548.09</ele>
        <time>2013-07-24T12:08:53Z</time>
      </trkpt>
      <trkpt lat="46.61383" lon="5.85416">
        <ele>549.05</ele>
        <time>2013-07-24T12:09:10Z</time>
      </trkpt>
      <trkpt lat="46.61385" lon="5.85429">
        <ele>550.97</ele>
        <time>2013-07-24T12:09:22Z</time>
      </trkpt>
      <trkpt lat="46.61386" lon="5.85435">
        <ele>550.97</ele>
        <time>2013-07-24T12:09:42Z</time>
      </trkpt>
      <trkpt lat="46.61349" lon="5.85468">
        <ele>551.45</ele>
        <time>2013-07-24T12:10:31Z</time>
      </trkpt>
      <trkpt lat="46.61374" lon="5.85462">
        <ele>553.86</ele>
        <time>2013-07-24T12:10:38Z</time>
      </trkpt>
      <trkpt lat="46.61366" lon="5.8546">
        <ele>553.38</ele>
        <time>2013-07-24T12:11:07Z</time>
      </trkpt>
      <trkpt lat="46.61372" lon="5.85452">
        <ele>553.38</ele>
        <time>2013-07-24T12:11:37Z</time>
      </trkpt>
      <trkpt lat="46.61368" lon="5.85463">
        <ele>553.86</ele>
        <time>2013-07-24T12:11:52Z</time>
      </trkpt>
      <trkpt lat="46.61363" lon="5.85479">
        <ele>554.34</ele>
        <time>2013-07-24T12:12:06Z</time>
      </trkpt>
      <trkpt lat="46.61359" lon="5.85486">
        <ele>554.82</ele>
        <time>2013-07-24T12:12:27Z</time>
      </trkpt>
      <trkpt lat="46.61356" lon="5.85472">
        <ele>554.34</ele>
        <time>2013-07-24T12:12:53Z</time>
      </trkpt>
      <trkpt lat="46.61355" lon="5.8546">
        <ele>553.86</ele>
        <time>2013-07-24T12:13:24Z</time>
      </trkpt>
      <trkpt lat="46.61342" lon="5.85464">
        <ele>554.82</ele>
        <time>2013-07-24T12:13:49Z</time>
      </trkpt>
      <trkpt lat="46.61351" lon="5.85465">
        <ele>554.34</ele>
        <time>2013-07-24T12:14:06Z</time>
      </trkpt>
      <trkpt lat="46.61351" lon="5.85427">
        <ele>554.82</ele>
        <time>2013-07-24T12:15:00Z</time>
      </trkpt>
      <trkpt lat="46.61357" lon="5.85438">
        <ele>554.82</ele>
        <time>2013-07-24T12:15:24Z</time>
      </trkpt>
      <trkpt lat="46.61367" lon="5.85436">
        <ele>556.74</ele>
        <time>2013-07-24T12:15:37Z</time>
      </trkpt>
      <trkpt lat="46.61387" lon="5.85429">
        <ele>558.66</ele>
        <time>2013-07-24T12:15:50Z</time>
      </trkpt>
      <trkpt lat="46.61389" lon="5.85445">
        <ele>557.7</ele>
        <time>2013-07-24T12:16:03Z</time>
      </trkpt>
      <trkpt lat="46.61405" lon="5.85425">
        <ele>561.07</ele>
        <time>2013-07-24T12:16:21Z</time>
      </trkpt>
      <trkpt lat="46.61423" lon="5.85404">
        <ele>564.43</ele>
        <time>2013-07-24T12:16:33Z</time>
      </trkpt>
      <trkpt lat="46.61432" lon="5.85395">
        <ele>567.8</ele>
        <time>2013-07-24T12:16:44Z</time>
      </trkpt>
      <trkpt lat="46.61441" lon="5.85393">
        <ele>570.2</ele>
        <time>2013-07-24T12:16:59Z</time>
      </trkpt>
      <trkpt lat="46.61446" lon="5.85388">
        <ele>573.08</ele>
        <time>2013-07-24T12:17:10Z</time>
      </trkpt>
      <trkpt lat="46.61442" lon="5.85383">
        <ele>574.04</ele>
        <time>2013-07-24T12:17:26Z</time>
      </trkpt>
      <trkpt lat="46.61443" lon="5.85388">
        <ele>574.04</ele>
        <time>2013-07-24T12:17:53Z</time>
      </trkpt>
      <trkpt lat="46.61436" lon="5.8539">
        <ele>574.53</ele>
        <time>2013-07-24T12:18:19Z</time>
      </trkpt>
      <trkpt lat="46.61441" lon="5.85382">
        <ele>577.41</ele>
        <time>2013-07-24T12:18:36Z</time>
      </trkpt>
      <trkpt lat="46.61442" lon="5.85394">
        <ele>577.89</ele>
        <time>2013-07-24T12:18:51Z</time>
      </trkpt>
      <trkpt lat="46.61442" lon="5.85404">
        <ele>579.33</ele>
        <time>2013-07-24T12:19:08Z</time>
      </trkpt>
      <trkpt lat="46.61441" lon="5.85429">
        <ele>581.73</ele>
        <time>2013-07-24T12:19:25Z</time>
      </trkpt>
      <trkpt lat="46.61437" lon="5.8545">
        <ele>582.7</ele>
        <time>2013-07-24T12:19:40Z</time>
      </trkpt>
      <trkpt lat="46.6144" lon="5.85454">
        <ele>582.22</ele>
        <time>2013-07-24T12:19:46Z</time>
      </trkpt>
      <trkpt lat="46.61444" lon="5.85464">
        <ele>582.7</ele>
        <time>2013-07-24T12:20:04Z</time>
      </trkpt>
      <trkpt lat="46.61446" lon="5.85455">
        <ele>583.18</ele>
        <time>2013-07-24T12:20:29Z</time>
      </trkpt>
      <trkpt lat="46.61442" lon="5.85463">
        <ele>583.66</ele>
        <time>2013-07-24T12:20:51Z</time>
      </trkpt>
      <trkpt lat="46.61454" lon="5.85452">
        <ele>583.66</ele>
        <time>2013-07-24T12:21:14Z</time>
      </trkpt>
      <trkpt lat="46.61434" lon="5.85466">
        <ele>585.1</ele>
        <time>2013-07-24T12:21:33Z</time>
      </trkpt>
      <trkpt lat="46.61437" lon="5.85474">
        <ele>588.46</ele>
        <time>2013-07-24T12:21:49Z</time>
      </trkpt>
      <trkpt lat="46.61436" lon="5.85492">
        <ele>591.35</ele>
        <time>2013-07-24T12:22:06Z</time>
      </trkpt>
      <trkpt lat="46.6143" lon="5.85506">
        <ele>592.79</ele>
        <time>2013-07-24T12:22:20Z</time>
      </trkpt>
      <trkpt lat="46.61422" lon="5.85519">
        <ele>595.19</ele>
        <time>2013-07-24T12:22:34Z</time>
      </trkpt>
      <trkpt lat="46.61414" lon="5.85525">
        <ele>596.64</ele>
        <time>2013-07-24T12:22:48Z</time>
      </trkpt>
      <trkpt lat="46.61404" lon="5.85524">
        <ele>597.6</ele>
        <time>2013-07-24T12:23:03Z</time>
      </trkpt>
      <trkpt lat="46.61397" lon="5.85514">
        <ele>597.12</ele>
        <time>2013-07-24T12:23:17Z</time>
      </trkpt>
      <trkpt lat="46.61398" lon="5.85516">
        <ele>596.64</ele>
        <time>2013-07-24T12:23:33Z</time>
      </trkpt>
      <trkpt lat="46.61393" lon="5.85524">
        <ele>596.15</ele>
        <time>2013-07-24T12:23:59Z</time>
      </trkpt>
      <trkpt lat="46.6139" lon="5.85522">
        <ele>596.64</ele>
        <time>2013-07-24T12:24:13Z</time>
      </trkpt>
      <trkpt lat="46.61386" lon="5.85506">
        <ele>596.15</ele>
        <time>2013-07-24T12:24:36Z</time>
      </trkpt>
      <trkpt lat="46.61392" lon="5.85507">
        <ele>596.64</ele>
        <time>2013-07-24T12:24:57Z</time>
      </trkpt>
      <trkpt lat="46.61392" lon="5.8551">
        <ele>596.64</ele>
        <time>2013-07-24T12:25:24Z</time>
      </trkpt>
      <trkpt lat="46.6139" lon="5.85513">
        <ele>596.15</ele>
        <time>2013-07-24T12:25:45Z</time>
      </trkpt>
      <trkpt lat="46.61393" lon="5.85522">
        <ele>596.15</ele>
        <time>2013-07-24T12:26:00Z</time>
      </trkpt>
      <trkpt lat="46.61398" lon="5.85515">
        <ele>596.64</ele>
        <time>2013-07-24T12:26:13Z</time>
      </trkpt>
      <trkpt lat="46.61389" lon="5.85517">
        <ele>596.64</ele>
        <time>2013-07-24T12:26:32Z</time>
      </trkpt>
      <trkpt lat="46.61391" lon="5.85532">
        <ele>597.12</ele>
        <time>2013-07-24T12:26:50Z</time>
      </trkpt>
      <trkpt lat="46.61392" lon="5.85531">
        <ele>597.12</ele>
        <time>2013-07-24T12:27:12Z</time>
      </trkpt>
      <trkpt lat="46.614" lon="5.85547">
        <ele>598.56</ele>
        <time>2013-07-24T12:27:30Z</time>
      </trkpt>
      <trkpt lat="46.61397" lon="5.85577">
        <ele>599.52</ele>
        <time>2013-07-24T12:27:47Z</time>
      </trkpt>
      <trkpt lat="46.6139" lon="5.85589">
        <ele>598.56</ele>
        <time>2013-07-24T12:28:01Z</time>
      </trkpt>
      <trkpt lat="46.61381" lon="5.85596">
        <ele>598.08</ele>
        <time>2013-07-24T12:28:18Z</time>
      </trkpt>
      <trkpt lat="46.61384" lon="5.85582">
        <ele>597.12</ele>
        <time>2013-07-24T12:28:43Z</time>
      </trkpt>
      <trkpt lat="46.61392" lon="5.85602">
        <ele>599.04</ele>
        <time>2013-07-24T12:28:59Z</time>
      </trkpt>
      <trkpt lat="46.61386" lon="5.85618">
        <ele>600.48</ele>
        <time>2013-07-24T12:29:13Z</time>
      </trkpt>
      <trkpt lat="46.61386" lon="5.85622">
        <ele>599.52</ele>
        <time>2013-07-24T12:29:33Z</time>
      </trkpt>
      <trkpt lat="46.61399" lon="5.85623">
        <ele>600</ele>
        <time>2013-07-24T12:29:46Z</time>
      </trkpt>
      <trkpt lat="46.61395" lon="5.8564">
        <ele>600.96</ele>
        <time>2013-07-24T12:30:06Z</time>
      </trkpt>
      <trkpt lat="46.61395" lon="5.85645">
        <ele>600.48</ele>
        <time>2013-07-24T12:30:22Z</time>
      </trkpt>
      <trkpt lat="46.61397" lon="5.85641">
        <ele>600.48</ele>
        <time>2013-07-24T12:30:40Z</time>
      </trkpt>
      <trkpt lat="46.61378" lon="5.85642">
        <ele>600.96</ele>
        <time>2013-07-24T12:31:17Z</time>
      </trkpt>
      <trkpt lat="46.61382" lon="5.85643">
        <ele>601.44</ele>
        <time>2013-07-24T12:31:46Z</time>
      </trkpt>
      <trkpt lat="46.61387" lon="5.85647">
        <ele>604.81</ele>
        <time>2013-07-24T12:32:02Z</time>
      </trkpt>
      <trkpt lat="46.61388" lon="5.8565">
        <ele>607.69</ele>
        <time>2013-07-24T12:32:15Z</time>
      </trkpt>
      <trkpt lat="46.61394" lon="5.85669">
        <ele>608.17</ele>
        <time>2013-07-24T12:32:30Z</time>
      </trkpt>
      <trkpt lat="46.61396" lon="5.85663">
        <ele>608.17</ele>
        <time>2013-07-24T12:32:56Z</time>
      </trkpt>
      <trkpt lat="46.61394" lon="5.85658">
        <ele>608.65</ele>
        <time>2013-07-24T12:33:12Z</time>
      </trkpt>
      <trkpt lat="46.61402" lon="5.85672">
        <ele>609.61</ele>
        <time>2013-07-24T12:33:44Z</time>
      </trkpt>
      <trkpt lat="46.61391" lon="5.85687">
        <ele>611.54</ele>
        <time>2013-07-24T12:34:02Z</time>
      </trkpt>
      <trkpt lat="46.61389" lon="5.85693">
        <ele>612.98</ele>
        <time>2013-07-24T12:34:16Z</time>
      </trkpt>
      <trkpt lat="46.61388" lon="5.85694">
        <ele>615.86</ele>
        <time>2013-07-24T12:34:37Z</time>
      </trkpt>
      <trkpt lat="46.61384" lon="5.85702">
        <ele>619.23</ele>
        <time>2013-07-24T12:34:50Z</time>
      </trkpt>
      <trkpt lat="46.61392" lon="5.85701">
        <ele>619.23</ele>
        <time>2013-07-24T12:35:15Z</time>
      </trkpt>
      <trkpt lat="46.61393" lon="5.85706">
        <ele>619.23</ele>
        <time>2013-07-24T12:35:41Z</time>
      </trkpt>
      <trkpt lat="46.61381" lon="5.8571">
        <ele>621.15</ele>
        <time>2013-07-24T12:35:59Z</time>
      </trkpt>
      <trkpt lat="46.61381" lon="5.85718">
        <ele>624.03</ele>
        <time>2013-07-24T12:36:07Z</time>
      </trkpt>
      <trkpt lat="46.6138" lon="5.85732">
        <ele>626.44</ele>
        <time>2013-07-24T12:36:19Z</time>
      </trkpt>
      <trkpt lat="46.61374" lon="5.85743">
        <ele>628.84</ele>
        <time>2013-07-24T12:36:30Z</time>
      </trkpt>
      <trkpt lat="46.61373" lon="5.85763">
        <ele>631.72</ele>
        <time>2013-07-24T12:36:43Z</time>
      </trkpt>
      <trkpt lat="46.61375" lon="5.85784">
        <ele>635.09</ele>
        <time>2013-07-24T12:36:56Z</time>
      </trkpt>
      <trkpt lat="46.61378" lon="5.85794">
        <ele>636.53</ele>
        <time>2013-07-24T12:37:01Z</time>
      </trkpt>
      <trkpt lat="46.61382" lon="5.85809">
        <ele>639.41</ele>
        <time>2013-07-24T12:37:11Z</time>
      </trkpt>
      <trkpt lat="46.61382" lon="5.85823">
        <ele>641.34</ele>
        <time>2013-07-24T12:37:26Z</time>
      </trkpt>
      <trkpt lat="46.61377" lon="5.85834">
        <ele>644.7</ele>
        <time>2013-07-24T12:37:41Z</time>
      </trkpt>
      <trkpt lat="46.61378" lon="5.85841">
        <ele>648.07</ele>
        <time>2013-07-24T12:37:50Z</time>
      </trkpt>
      <trkpt lat="46.6138" lon="5.85852">
        <ele>651.43</ele>
        <time>2013-07-24T12:38:03Z</time>
      </trkpt>
      <trkpt lat="46.61379" lon="5.85862">
        <ele>653.83</ele>
        <time>2013-07-24T12:38:16Z</time>
      </trkpt>
      <trkpt lat="46.61379" lon="5.85867">
        <ele>655.28</ele>
        <time>2013-07-24T12:38:19Z</time>
      </trkpt>
      <trkpt lat="46.61378" lon="5.85878">
        <ele>656.72</ele>
        <time>2013-07-24T12:38:29Z</time>
      </trkpt>
      <trkpt lat="46.61378" lon="5.85878">
        <ele>657.2</ele>
        <time>2013-07-24T12:38:47Z</time>
      </trkpt>
      <trkpt lat="46.61378" lon="5.8588">
        <ele>656.72</ele>
        <time>2013-07-24T12:39:13Z</time>
      </trkpt>
      <trkpt lat="46.61378" lon="5.85881">
        <ele>657.2</ele>
        <time>2013-07-24T12:39:31Z</time>
      </trkpt>
      <trkpt lat="46.61374" lon="5.85879">
        <ele>656.24</ele>
        <time>2013-07-24T12:39:55Z</time>
      </trkpt>
      <trkpt lat="46.61384" lon="5.85878">
        <ele>656.72</ele>
        <time>2013-07-24T12:40:26Z</time>
      </trkpt>
      <trkpt lat="46.61388" lon="5.85873">
        <ele>657.2</ele>
        <time>2013-07-24T12:40:59Z</time>
      </trkpt>
      <trkpt lat="46.61382" lon="5.85869">
        <ele>657.68</ele>
        <time>2013-07-24T12:41:26Z</time>
      </trkpt>
      <trkpt lat="46.61373" lon="5.8588">
        <ele>657.2</ele>
        <time>2013-07-24T12:41:54Z</time>
      </trkpt>
      <trkpt lat="46.61376" lon="5.85878">
        <ele>658.16</ele>
        <time>2013-07-24T12:42:22Z</time>
      </trkpt>
      <trkpt lat="46.61396" lon="5.85878">
        <ele>657.2</ele>
        <time>2013-07-24T12:42:59Z</time>
      </trkpt>
      <trkpt lat="46.61409" lon="5.85874">
        <ele>657.2</ele>
        <time>2013-07-24T12:43:26Z</time>
      </trkpt>
      <trkpt lat="46.61387" lon="5.85874">
        <ele>657.2</ele>
        <time>2013-07-24T12:43:59Z</time>
      </trkpt>
      <trkpt lat="46.61383" lon="5.8587">
        <ele>657.68</ele>
        <time>2013-07-24T12:44:18Z</time>
      </trkpt>
      <trkpt lat="46.61394" lon="5.85877">
        <ele>657.68</ele>
        <time>2013-07-24T12:44:37Z</time>
      </trkpt>
      <trkpt lat="46.61391" lon="5.85875">
        <ele>658.64</ele>
        <time>2013-07-24T12:45:03Z</time>
      </trkpt>
      <trkpt lat="46.6138" lon="5.85873">
        <ele>661.52</ele>
        <time>2013-07-24T12:45:17Z</time>
      </trkpt>
      <trkpt lat="46.61383" lon="5.85889">
        <ele>663.93</ele>
        <time>2013-07-24T12:45:27Z</time>
      </trkpt>
      <trkpt lat="46.61388" lon="5.85904">
        <ele>663.93</ele>
        <time>2013-07-24T12:45:41Z</time>
      </trkpt>
      <trkpt lat="46.61393" lon="5.85913">
        <ele>663.93</ele>
        <time>2013-07-24T12:45:49Z</time>
      </trkpt>
      <trkpt lat="46.61395" lon="5.85915">
        <ele>664.41</ele>
        <time>2013-07-24T12:45:51Z</time>
      </trkpt>
      <trkpt lat="46.61403" lon="5.85936">
        <ele>667.77</ele>
        <time>2013-07-24T12:46:04Z</time>
      </trkpt>
      <trkpt lat="46.61404" lon="5.85938">
        <ele>668.25</ele>
        <time>2013-07-24T12:46:05Z</time>
      </trkpt>
      <trkpt lat="46.61402" lon="5.85944">
        <ele>667.77</ele>
        <time>2013-07-24T12:46:24Z</time>
      </trkpt>
      <trkpt lat="46.61408" lon="5.85958">
        <ele>666.81</ele>
        <time>2013-07-24T12:46:37Z</time>
      </trkpt>
      <trkpt lat="46.61412" lon="5.85967">
        <ele>665.85</ele>
        <time>2013-07-24T12:46:46Z</time>
      </trkpt>
      <trkpt lat="46.6142" lon="5.85985">
        <ele>665.37</ele>
        <time>2013-07-24T12:47:01Z</time>
      </trkpt>
      <trkpt lat="46.61423" lon="5.86006">
        <ele>667.29</ele>
        <time>2013-07-24T12:47:14Z</time>
      </trkpt>
      <trkpt lat="46.61422" lon="5.86007">
        <ele>667.29</ele>
        <time>2013-07-24T12:47:15Z</time>
      </trkpt>
      <trkpt lat="46.61425" lon="5.86017">
        <ele>668.73</ele>
        <time>2013-07-24T12:47:26Z</time>
      </trkpt>
      <trkpt lat="46.61429" lon="5.86029">
        <ele>672.1</ele>
        <time>2013-07-24T12:47:39Z</time>
      </trkpt>
      <trkpt lat="46.6143" lon="5.8603">
        <ele>672.1</ele>
        <time>2013-07-24T12:47:40Z</time>
      </trkpt>
      <trkpt lat="46.61434" lon="5.86034">
        <ele>674.02</ele>
        <time>2013-07-24T12:47:43Z</time>
      </trkpt>
      <trkpt lat="46.6144" lon="5.8604">
        <ele>674.5</ele>
        <time>2013-07-24T12:47:55Z</time>
      </trkpt>
      <trkpt lat="46.61442" lon="5.86044">
        <ele>674.02</ele>
        <time>2013-07-24T12:48:08Z</time>
      </trkpt>
      <trkpt lat="46.61442" lon="5.86052">
        <ele>674.5</ele>
        <time>2013-07-24T12:48:31Z</time>
      </trkpt>
      <trkpt lat="46.61443" lon="5.86052">
        <ele>674.02</ele>
        <time>2013-07-24T12:48:52Z</time>
      </trkpt>
      <trkpt lat="46.61444" lon="5.86056">
        <ele>674.02</ele>
        <time>2013-07-24T12:49:16Z</time>
      </trkpt>
      <trkpt lat="46.61449" lon="5.86059">
        <ele>673.06</ele>
        <time>2013-07-24T12:49:39Z</time>
      </trkpt>
      <trkpt lat="46.61457" lon="5.86057">
        <ele>674.02</ele>
        <time>2013-07-24T12:49:53Z</time>
      </trkpt>
      <trkpt lat="46.61467" lon="5.86061">
        <ele>673.54</ele>
        <time>2013-07-24T12:50:09Z</time>
      </trkpt>
      <trkpt lat="46.61471" lon="5.86063">
        <ele>673.54</ele>
        <time>2013-07-24T12:50:32Z</time>
      </trkpt>
      <trkpt lat="46.61469" lon="5.86058">
        <ele>673.54</ele>
        <time>2013-07-24T12:51:04Z</time>
      </trkpt>
      <trkpt lat="46.61471" lon="5.86068">
        <ele>673.06</ele>
        <time>2013-07-24T12:51:32Z</time>
      </trkpt>
      <trkpt lat="46.61468" lon="5.86057">
        <ele>673.54</ele>
        <time>2013-07-24T12:51:56Z</time>
      </trkpt>
      <trkpt lat="46.61467" lon="5.86065">
        <ele>673.54</ele>
        <time>2013-07-24T12:52:34Z</time>
      </trkpt>
      <trkpt lat="46.61465" lon="5.86053">
        <ele>674.02</ele>
        <time>2013-07-24T12:52:53Z</time>
      </trkpt>
      <trkpt lat="46.61463" lon="5.86052">
        <ele>674.5</ele>
        <time>2013-07-24T12:53:12Z</time>
      </trkpt>
      <trkpt lat="46.61469" lon="5.86062">
        <ele>675.94</ele>
        <time>2013-07-24T12:53:29Z</time>
      </trkpt>
      <trkpt lat="46.61477" lon="5.86078">
        <ele>677.39</ele>
        <time>2013-07-24T12:53:50Z</time>
      </trkpt>
      <trkpt lat="46.61486" lon="5.86083">
        <ele>677.39</ele>
        <time>2013-07-24T12:54:05Z</time>
      </trkpt>
      <trkpt lat="46.61477" lon="5.86086">
        <ele>678.83</ele>
        <time>2013-07-24T12:54:20Z</time>
      </trkpt>
      <trkpt lat="46.61476" lon="5.86107">
        <ele>680.27</ele>
        <time>2013-07-24T12:54:34Z</time>
      </trkpt>
      <trkpt lat="46.6148" lon="5.86123">
        <ele>679.79</ele>
        <time>2013-07-24T12:54:46Z</time>
      </trkpt>
      <trkpt lat="46.61488" lon="5.86144">
        <ele>679.31</ele>
        <time>2013-07-24T12:55:00Z</time>
      </trkpt>
      <trkpt lat="46.61499" lon="5.86159">
        <ele>678.35</ele>
        <time>2013-07-24T12:55:12Z</time>
      </trkpt>
      <trkpt lat="46.61501" lon="5.86173">
        <ele>678.83</ele>
        <time>2013-07-24T12:55:27Z</time>
      </trkpt>
      <trkpt lat="46.61512" lon="5.86182">
        <ele>679.31</ele>
        <time>2013-07-24T12:55:59Z</time>
      </trkpt>
      <trkpt lat="46.6151" lon="5.86185">
        <ele>679.79</ele>
        <time>2013-07-24T12:56:28Z</time>
      </trkpt>
      <trkpt lat="46.61508" lon="5.86191">
        <ele>679.79</ele>
        <time>2013-07-24T12:56:42Z</time>
      </trkpt>
      <trkpt lat="46.61505" lon="5.86195">
        <ele>679.79</ele>
        <time>2013-07-24T12:57:06Z</time>
      </trkpt>
      <trkpt lat="46.61509" lon="5.86205">
        <ele>681.23</ele>
        <time>2013-07-24T12:57:19Z</time>
      </trkpt>
      <trkpt lat="46.61521" lon="5.86209">
        <ele>679.79</ele>
        <time>2013-07-24T12:57:31Z</time>
      </trkpt>
      <trkpt lat="46.61524" lon="5.8621">
        <ele>678.83</ele>
        <time>2013-07-24T12:57:43Z</time>
      </trkpt>
      <trkpt lat="46.61522" lon="5.86203">
        <ele>679.79</ele>
        <time>2013-07-24T12:57:56Z</time>
      </trkpt>
      <trkpt lat="46.61523" lon="5.86196">
        <ele>679.79</ele>
        <time>2013-07-24T12:58:12Z</time>
      </trkpt>
      <trkpt lat="46.61533" lon="5.86186">
        <ele>679.31</ele>
        <time>2013-07-24T12:58:32Z</time>
      </trkpt>
      <trkpt lat="46.61528" lon="5.86185">
        <ele>679.31</ele>
        <time>2013-07-24T12:59:04Z</time>
      </trkpt>
      <trkpt lat="46.61528" lon="5.8619">
        <ele>680.75</ele>
        <time>2013-07-24T12:59:34Z</time>
      </trkpt>
      <trkpt lat="46.61521" lon="5.86196">
        <ele>680.75</ele>
        <time>2013-07-24T12:59:55Z</time>
      </trkpt>
      <trkpt lat="46.61524" lon="5.86199">
        <ele>680.75</ele>
        <time>2013-07-24T13:00:11Z</time>
      </trkpt>
      <trkpt lat="46.61526" lon="5.86202">
        <ele>680.27</ele>
        <time>2013-07-24T13:00:30Z</time>
      </trkpt>
      <trkpt lat="46.6152" lon="5.86205">
        <ele>681.23</ele>
        <time>2013-07-24T13:00:47Z</time>
      </trkpt>
      <trkpt lat="46.61529" lon="5.86204">
        <ele>680.75</ele>
        <time>2013-07-24T13:01:03Z</time>
      </trkpt>
      <trkpt lat="46.61536" lon="5.86212">
        <ele>680.75</ele>
        <time>2013-07-24T13:01:28Z</time>
      </trkpt>
      <trkpt lat="46.61527" lon="5.86218">
        <ele>681.71</ele>
        <time>2013-07-24T13:01:38Z</time>
      </trkpt>
      <trkpt lat="46.61531" lon="5.86223">
        <ele>682.19</ele>
        <time>2013-07-24T13:01:53Z</time>
      </trkpt>
      <trkpt lat="46.61527" lon="5.86222">
        <ele>682.19</ele>
        <time>2013-07-24T13:02:16Z</time>
      </trkpt>
      <trkpt lat="46.6153" lon="5.86225">
        <ele>682.67</ele>
        <time>2013-07-24T13:02:37Z</time>
      </trkpt>
      <trkpt lat="46.61526" lon="5.86227">
        <ele>683.15</ele>
        <time>2013-07-24T13:02:57Z</time>
      </trkpt>
      <trkpt lat="46.61526" lon="5.86227">
        <ele>683.15</ele>
        <time>2013-07-24T13:03:22Z</time>
      </trkpt>
      <trkpt lat="46.6153" lon="5.86226">
        <ele>682.67</ele>
        <time>2013-07-24T13:03:47Z</time>
      </trkpt>
      <trkpt lat="46.61533" lon="5.8622">
        <ele>683.15</ele>
        <time>2013-07-24T13:04:07Z</time>
      </trkpt>
      <trkpt lat="46.61532" lon="5.86219">
        <ele>684.12</ele>
        <time>2013-07-24T13:04:16Z</time>
      </trkpt>
      <trkpt lat="46.61529" lon="5.86208">
        <ele>684.6</ele>
        <time>2013-07-24T13:04:39Z</time>
      </trkpt>
      <trkpt lat="46.61526" lon="5.86208">
        <ele>686.52</ele>
        <time>2013-07-24T13:04:54Z</time>
      </trkpt>
      <trkpt lat="46.61528" lon="5.86224">
        <ele>688.92</ele>
        <time>2013-07-24T13:05:06Z</time>
      </trkpt>
      <trkpt lat="46.61532" lon="5.86229">
        <ele>688.92</ele>
        <time>2013-07-24T13:05:22Z</time>
      </trkpt>
      <trkpt lat="46.61534" lon="5.86237">
        <ele>690.36</ele>
        <time>2013-07-24T13:05:39Z</time>
      </trkpt>
      <trkpt lat="46.61538" lon="5.86244">
        <ele>689.88</ele>
        <time>2013-07-24T13:06:09Z</time>
      </trkpt>
      <trkpt lat="46.6153" lon="5.8625">
        <ele>692.29</ele>
        <time>2013-07-24T13:06:30Z</time>
      </trkpt>
      <trkpt lat="46.61538" lon="5.86255">
        <ele>693.73</ele>
        <time>2013-07-24T13:06:51Z</time>
      </trkpt>
      <trkpt lat="46.61547" lon="5.8626">
        <ele>695.17</ele>
        <time>2013-07-24T13:07:11Z</time>
      </trkpt>
      <trkpt lat="46.61552" lon="5.86265">
        <ele>695.65</ele>
        <time>2013-07-24T13:07:26Z</time>
      </trkpt>
      <trkpt lat="46.6155" lon="5.8627">
        <ele>695.65</ele>
        <time>2013-07-24T13:07:52Z</time>
      </trkpt>
      <trkpt lat="46.61546" lon="5.86271">
        <ele>696.61</ele>
        <time>2013-07-24T13:08:19Z</time>
      </trkpt>
      <trkpt lat="46.61546" lon="5.86275">
        <ele>695.65</ele>
        <time>2013-07-24T13:08:43Z</time>
      </trkpt>
      <trkpt lat="46.61543" lon="5.86271">
        <ele>696.13</ele>
        <time>2013-07-24T13:08:59Z</time>
      </trkpt>
      <trkpt lat="46.61545" lon="5.86276">
        <ele>696.13</ele>
        <time>2013-07-24T13:09:18Z</time>
      </trkpt>
      <trkpt lat="46.61555" lon="5.86285">
        <ele>696.61</ele>
        <time>2013-07-24T13:09:41Z</time>
      </trkpt>
      <trkpt lat="46.61545" lon="5.86282">
        <ele>696.61</ele>
        <time>2013-07-24T13:09:56Z</time>
      </trkpt>
      <trkpt lat="46.61545" lon="5.86282">
        <ele>697.09</ele>
        <time>2013-07-24T13:09:59Z</time>
      </trkpt>
      <trkpt lat="46.61546" lon="5.86297">
        <ele>699.02</ele>
        <time>2013-07-24T13:10:09Z</time>
      </trkpt>
      <trkpt lat="46.61556" lon="5.86314">
        <ele>698.05</ele>
        <time>2013-07-24T13:10:28Z</time>
      </trkpt>
      <trkpt lat="46.61552" lon="5.86322">
        <ele>697.09</ele>
        <time>2013-07-24T13:10:55Z</time>
      </trkpt>
      <trkpt lat="46.61544" lon="5.86327">
        <ele>697.09</ele>
        <time>2013-07-24T13:11:27Z</time>
      </trkpt>
      <trkpt lat="46.61543" lon="5.86322">
        <ele>696.61</ele>
        <time>2013-07-24T13:12:09Z</time>
      </trkpt>
      <trkpt lat="46.61533" lon="5.86319">
        <ele>697.09</ele>
        <time>2013-07-24T13:12:44Z</time>
      </trkpt>
      <trkpt lat="46.61522" lon="5.86315">
        <ele>698.05</ele>
        <time>2013-07-24T13:13:09Z</time>
      </trkpt>
      <trkpt lat="46.61506" lon="5.8632">
        <ele>697.09</ele>
        <time>2013-07-24T13:13:37Z</time>
      </trkpt>
      <trkpt lat="46.615" lon="5.86316">
        <ele>696.61</ele>
        <time>2013-07-24T13:14:05Z</time>
      </trkpt>
      <trkpt lat="46.61514" lon="5.86313">
        <ele>697.57</ele>
        <time>2013-07-24T13:14:28Z</time>
      </trkpt>
      <trkpt lat="46.61515" lon="5.86331">
        <ele>698.05</ele>
        <time>2013-07-24T13:14:42Z</time>
      </trkpt>
      <trkpt lat="46.61524" lon="5.86337">
        <ele>698.53</ele>
        <time>2013-07-24T13:14:56Z</time>
      </trkpt>
      <trkpt lat="46.61523" lon="5.86337">
        <ele>699.5</ele>
        <time>2013-07-24T13:15:20Z</time>
      </trkpt>
      <trkpt lat="46.61524" lon="5.8634">
        <ele>699.02</ele>
        <time>2013-07-24T13:15:32Z</time>
      </trkpt>
      <trkpt lat="46.61522" lon="5.86339">
        <ele>700.94</ele>
        <time>2013-07-24T13:15:34Z</time>
      </trkpt>
      <trkpt lat="46.61516" lon="5.86354">
        <ele>701.9</ele>
        <time>2013-07-24T13:15:50Z</time>
      </trkpt>
      <trkpt lat="46.6151" lon="5.86361">
        <ele>700.94</ele>
        <time>2013-07-24T13:16:04Z</time>
      </trkpt>
      <trkpt lat="46.61509" lon="5.8637">
        <ele>700.46</ele>
        <time>2013-07-24T13:16:18Z</time>
      </trkpt>
      <trkpt lat="46.61503" lon="5.86376">
        <ele>701.42</ele>
        <time>2013-07-24T13:16:47Z</time>
      </trkpt>
      <trkpt lat="46.61505" lon="5.86384">
        <ele>703.82</ele>
        <time>2013-07-24T13:16:58Z</time>
      </trkpt>
      <trkpt lat="46.61514" lon="5.86395">
        <ele>705.26</ele>
        <time>2013-07-24T13:17:14Z</time>
      </trkpt>
      <trkpt lat="46.61519" lon="5.8641">
        <ele>705.26</ele>
        <time>2013-07-24T13:17:33Z</time>
      </trkpt>
      <trkpt lat="46.61518" lon="5.86421">
        <ele>703.34</ele>
        <time>2013-07-24T13:17:55Z</time>
      </trkpt>
      <trkpt lat="46.61508" lon="5.86427">
        <ele>706.71</ele>
        <time>2013-07-24T13:18:08Z</time>
      </trkpt>
      <trkpt lat="46.61504" lon="5.86441">
        <ele>708.63</ele>
        <time>2013-07-24T13:18:21Z</time>
      </trkpt>
      <trkpt lat="46.61507" lon="5.86455">
        <ele>708.63</ele>
        <time>2013-07-24T13:18:35Z</time>
      </trkpt>
      <trkpt lat="46.61503" lon="5.86466">
        <ele>707.67</ele>
        <time>2013-07-24T13:18:50Z</time>
      </trkpt>
      <trkpt lat="46.61501" lon="5.86479">
        <ele>708.15</ele>
        <time>2013-07-24T13:19:00Z</time>
      </trkpt>
      <trkpt lat="46.61498" lon="5.86487">
        <ele>709.11</ele>
        <time>2013-07-24T13:19:04Z</time>
      </trkpt>
      <trkpt lat="46.61501" lon="5.865">
        <ele>712.47</ele>
        <time>2013-07-24T13:19:18Z</time>
      </trkpt>
      <trkpt lat="46.61504" lon="5.86516">
        <ele>710.55</ele>
        <time>2013-07-24T13:19:32Z</time>
      </trkpt>
      <trkpt lat="46.61508" lon="5.86542">
        <ele>708.15</ele>
        <time>2013-07-24T13:19:50Z</time>
      </trkpt>
      <trkpt lat="46.61501" lon="5.86566">
        <ele>707.19</ele>
        <time>2013-07-24T13:20:07Z</time>
      </trkpt>
      <trkpt lat="46.61501" lon="5.86568">
        <ele>706.71</ele>
        <time>2013-07-24T13:20:08Z</time>
      </trkpt>
      <trkpt lat="46.61506" lon="5.86591">
        <ele>705.75</ele>
        <time>2013-07-24T13:20:22Z</time>
      </trkpt>
      <trkpt lat="46.61507" lon="5.86614">
        <ele>706.71</ele>
        <time>2013-07-24T13:20:32Z</time>
      </trkpt>
      <trkpt lat="46.61519" lon="5.86635">
        <ele>706.71</ele>
        <time>2013-07-24T13:20:48Z</time>
      </trkpt>
      <trkpt lat="46.61519" lon="5.86618">
        <ele>706.23</ele>
        <time>2013-07-24T13:21:00Z</time>
      </trkpt>
      <trkpt lat="46.61509" lon="5.86613">
        <ele>704.78</ele>
        <time>2013-07-24T13:21:20Z</time>
      </trkpt>
      <trkpt lat="46.61507" lon="5.8661">
        <ele>705.26</ele>
        <time>2013-07-24T13:21:46Z</time>
      </trkpt>
      <trkpt lat="46.61516" lon="5.86613">
        <ele>705.75</ele>
        <time>2013-07-24T13:22:17Z</time>
      </trkpt>
      <trkpt lat="46.61509" lon="5.86611">
        <ele>706.23</ele>
        <time>2013-07-24T13:22:40Z</time>
      </trkpt>
      <trkpt lat="46.61523" lon="5.8662">
        <ele>705.75</ele>
        <time>2013-07-24T13:23:05Z</time>
      </trkpt>
      <trkpt lat="46.61526" lon="5.86623">
        <ele>706.23</ele>
        <time>2013-07-24T13:23:27Z</time>
      </trkpt>
      <trkpt lat="46.61503" lon="5.86613">
        <ele>706.23</ele>
        <time>2013-07-24T13:23:54Z</time>
      </trkpt>
      <trkpt lat="46.61509" lon="5.86614">
        <ele>706.71</ele>
        <time>2013-07-24T13:24:27Z</time>
      </trkpt>
      <trkpt lat="46.61517" lon="5.86613">
        <ele>707.67</ele>
        <time>2013-07-24T13:24:59Z</time>
      </trkpt>
      <trkpt lat="46.61525" lon="5.86625">
        <ele>707.19</ele>
        <time>2013-07-24T13:25:25Z</time>
      </trkpt>
      <trkpt lat="46.61511" lon="5.8662">
        <ele>708.15</ele>
        <time>2013-07-24T13:25:55Z</time>
      </trkpt>
      <trkpt lat="46.61515" lon="5.86617">
        <ele>707.67</ele>
        <time>2013-07-24T13:26:20Z</time>
      </trkpt>
      <trkpt lat="46.61519" lon="5.86617">
        <ele>708.15</ele>
        <time>2013-07-24T13:26:42Z</time>
      </trkpt>
      <trkpt lat="46.61519" lon="5.86621">
        <ele>707.19</ele>
        <time>2013-07-24T13:27:07Z</time>
      </trkpt>
      <trkpt lat="46.61518" lon="5.86618">
        <ele>707.67</ele>
        <time>2013-07-24T13:27:33Z</time>
      </trkpt>
      <trkpt lat="46.61518" lon="5.86624">
        <ele>708.15</ele>
        <time>2013-07-24T13:27:59Z</time>
      </trkpt>
      <trkpt lat="46.61519" lon="5.86619">
        <ele>709.11</ele>
        <time>2013-07-24T13:28:28Z</time>
      </trkpt>
      <trkpt lat="46.61526" lon="5.86613">
        <ele>709.11</ele>
        <time>2013-07-24T13:28:52Z</time>
      </trkpt>
      <trkpt lat="46.61522" lon="5.86614">
        <ele>709.11</ele>
        <time>2013-07-24T13:29:16Z</time>
      </trkpt>
      <trkpt lat="46.61516" lon="5.86614">
        <ele>709.11</ele>
        <time>2013-07-24T13:29:38Z</time>
      </trkpt>
      <trkpt lat="46.61528" lon="5.8661">
        <ele>709.59</ele>
        <time>2013-07-24T13:30:05Z</time>
      </trkpt>
      <trkpt lat="46.6153" lon="5.8661">
        <ele>709.59</ele>
        <time>2013-07-24T13:30:32Z</time>
      </trkpt>
      <trkpt lat="46.61523" lon="5.86604">
        <ele>710.07</ele>
        <time>2013-07-24T13:30:59Z</time>
      </trkpt>
      <trkpt lat="46.61524" lon="5.8661">
        <ele>709.59</ele>
        <time>2013-07-24T13:31:29Z</time>
      </trkpt>
      <trkpt lat="46.61528" lon="5.86617">
        <ele>710.55</ele>
        <time>2013-07-24T13:31:52Z</time>
      </trkpt>
      <trkpt lat="46.61514" lon="5.86618">
        <ele>711.03</ele>
        <time>2013-07-24T13:32:22Z</time>
      </trkpt>
      <trkpt lat="46.61501" lon="5.8662">
        <ele>711.03</ele>
        <time>2013-07-24T13:32:48Z</time>
      </trkpt>
      <trkpt lat="46.61497" lon="5.86622">
        <ele>711.03</ele>
        <time>2013-07-24T13:33:11Z</time>
      </trkpt>
      <trkpt lat="46.61488" lon="5.86623">
        <ele>711.51</ele>
        <time>2013-07-24T13:33:42Z</time>
      </trkpt>
      <trkpt lat="46.61484" lon="5.86627">
        <ele>711.99</ele>
        <time>2013-07-24T13:34:12Z</time>
      </trkpt>
      <trkpt lat="46.61498" lon="5.86625">
        <ele>711.99</ele>
        <time>2013-07-24T13:34:44Z</time>
      </trkpt>
      <trkpt lat="46.61507" lon="5.86621">
        <ele>712.95</ele>
        <time>2013-07-24T13:35:13Z</time>
      </trkpt>
      <trkpt lat="46.61515" lon="5.86618">
        <ele>712.47</ele>
        <time>2013-07-24T13:35:46Z</time>
      </trkpt>
      <trkpt lat="46.61503" lon="5.86624">
        <ele>712.95</ele>
        <time>2013-07-24T13:36:09Z</time>
      </trkpt>
      <trkpt lat="46.61497" lon="5.8662">
        <ele>712.95</ele>
        <time>2013-07-24T13:36:38Z</time>
      </trkpt>
      <trkpt lat="46.6151" lon="5.86624">
        <ele>713.44</ele>
        <time>2013-07-24T13:37:12Z</time>
      </trkpt>
      <trkpt lat="46.61511" lon="5.86619">
        <ele>713.92</ele>
        <time>2013-07-24T13:37:39Z</time>
      </trkpt>
      <trkpt lat="46.61502" lon="5.86626">
        <ele>713.92</ele>
        <time>2013-07-24T13:38:03Z</time>
      </trkpt>
      <trkpt lat="46.61503" lon="5.86621">
        <ele>714.88</ele>
        <time>2013-07-24T13:38:27Z</time>
      </trkpt>
      <trkpt lat="46.61494" lon="5.86624">
        <ele>714.88</ele>
        <time>2013-07-24T13:38:55Z</time>
      </trkpt>
      <trkpt lat="46.61493" lon="5.86617">
        <ele>715.36</ele>
        <time>2013-07-24T13:39:27Z</time>
      </trkpt>
      <trkpt lat="46.6149" lon="5.86618">
        <ele>715.84</ele>
        <time>2013-07-24T13:40:00Z</time>
      </trkpt>
      <trkpt lat="46.61504" lon="5.86617">
        <ele>715.84</ele>
        <time>2013-07-24T13:40:33Z</time>
      </trkpt>
      <trkpt lat="46.61516" lon="5.86608">
        <ele>715.84</ele>
        <time>2013-07-24T13:41:08Z</time>
      </trkpt>
      <trkpt lat="46.61519" lon="5.86613">
        <ele>716.8</ele>
        <time>2013-07-24T13:41:37Z</time>
      </trkpt>
      <trkpt lat="46.6152" lon="5.86615">
        <ele>717.28</ele>
        <time>2013-07-24T13:42:04Z</time>
      </trkpt>
      <trkpt lat="46.61528" lon="5.86603">
        <ele>716.8</ele>
        <time>2013-07-24T13:42:28Z</time>
      </trkpt>
      <trkpt lat="46.61533" lon="5.86596">
        <ele>716.8</ele>
        <time>2013-07-24T13:42:53Z</time>
      </trkpt>
      <trkpt lat="46.61514" lon="5.86608">
        <ele>717.28</ele>
        <time>2013-07-24T13:43:22Z</time>
      </trkpt>
      <trkpt lat="46.61496" lon="5.86623">
        <ele>718.24</ele>
        <time>2013-07-24T13:43:45Z</time>
      </trkpt>
      <trkpt lat="46.61498" lon="5.86629">
        <ele>718.24</ele>
        <time>2013-07-24T13:44:02Z</time>
      </trkpt>
      <trkpt lat="46.61499" lon="5.8663">
        <ele>718.24</ele>
        <time>2013-07-24T13:44:27Z</time>
      </trkpt>
      <trkpt lat="46.6149" lon="5.86634">
        <ele>717.76</ele>
        <time>2013-07-24T13:44:48Z</time>
      </trkpt>
      <trkpt lat="46.61491" lon="5.86634">
        <ele>716.8</ele>
        <time>2013-07-24T13:44:57Z</time>
      </trkpt>
      <trkpt lat="46.61491" lon="5.86634">
        <ele>718.24</ele>
        <time>2013-07-24T13:44:58Z</time>
      </trkpt>
      <trkpt lat="46.6149" lon="5.86635">
        <ele>718.24</ele>
        <time>2013-07-24T13:45:22Z</time>
      </trkpt>
      <trkpt lat="46.6149" lon="5.86634">
        <ele>719.2</ele>
        <time>2013-07-24T13:45:37Z</time>
      </trkpt>
      <trkpt lat="46.61492" lon="5.86642">
        <ele>718.72</ele>
        <time>2013-07-24T13:46:01Z</time>
      </trkpt>
      <trkpt lat="46.6149" lon="5.86627">
        <ele>719.2</ele>
        <time>2013-07-24T13:46:15Z</time>
      </trkpt>
      <trkpt lat="46.61482" lon="5.86624">
        <ele>719.2</ele>
        <time>2013-07-24T13:46:44Z</time>
      </trkpt>
      <trkpt lat="46.61489" lon="5.86625">
        <ele>718.72</ele>
        <time>2013-07-24T13:47:02Z</time>
      </trkpt>
      <trkpt lat="46.61486" lon="5.86635">
        <ele>718.72</ele>
        <time>2013-07-24T13:47:25Z</time>
      </trkpt>
      <trkpt lat="46.6149" lon="5.86631">
        <ele>719.2</ele>
        <time>2013-07-24T13:47:46Z</time>
      </trkpt>
      <trkpt lat="46.6151" lon="5.86628">
        <ele>719.2</ele>
        <time>2013-07-24T13:48:08Z</time>
      </trkpt>
      <trkpt lat="46.61505" lon="5.86633">
        <ele>720.65</ele>
        <time>2013-07-24T13:48:28Z</time>
      </trkpt>
      <trkpt lat="46.61492" lon="5.86643">
        <ele>723.53</ele>
        <time>2013-07-24T13:48:49Z</time>
      </trkpt>
      <trkpt lat="46.61483" lon="5.86658">
        <ele>724.97</ele>
        <time>2013-07-24T13:49:03Z</time>
      </trkpt>
      <trkpt lat="46.61479" lon="5.86674">
        <ele>724.49</ele>
        <time>2013-07-24T13:49:18Z</time>
      </trkpt>
      <trkpt lat="46.61474" lon="5.86676">
        <ele>723.53</ele>
        <time>2013-07-24T13:49:43Z</time>
      </trkpt>
      <trkpt lat="46.61466" lon="5.86671">
        <ele>724.01</ele>
        <time>2013-07-24T13:49:57Z</time>
      </trkpt>
      <trkpt lat="46.61456" lon="5.86683">
        <ele>724.49</ele>
        <time>2013-07-24T13:50:12Z</time>
      </trkpt>
      <trkpt lat="46.61451" lon="5.86698">
        <ele>724.97</ele>
        <time>2013-07-24T13:50:33Z</time>
      </trkpt>
      <trkpt lat="46.6145" lon="5.86692">
        <ele>724.97</ele>
        <time>2013-07-24T13:51:00Z</time>
      </trkpt>
      <trkpt lat="46.61448" lon="5.86693">
        <ele>724.97</ele>
        <time>2013-07-24T13:51:04Z</time>
      </trkpt>
      <trkpt lat="46.61443" lon="5.86703">
        <ele>724.97</ele>
        <time>2013-07-24T13:51:13Z</time>
      </trkpt>
      <trkpt lat="46.61431" lon="5.86722">
        <ele>724.97</ele>
        <time>2013-07-24T13:51:27Z</time>
      </trkpt>
      <trkpt lat="46.61428" lon="5.86739">
        <ele>725.93</ele>
        <time>2013-07-24T13:51:42Z</time>
      </trkpt>
      <trkpt lat="46.61424" lon="5.86762">
        <ele>725.93</ele>
        <time>2013-07-24T13:51:56Z</time>
      </trkpt>
      <trkpt lat="46.61415" lon="5.8677">
        <ele>727.86</ele>
        <time>2013-07-24T13:52:11Z</time>
      </trkpt>
      <trkpt lat="46.61414" lon="5.86772">
        <ele>727.86</ele>
        <time>2013-07-24T13:52:14Z</time>
      </trkpt>
      <trkpt lat="46.6141" lon="5.86785">
        <ele>728.82</ele>
        <time>2013-07-24T13:52:28Z</time>
      </trkpt>
      <trkpt lat="46.61411" lon="5.86789">
        <ele>729.3</ele>
        <time>2013-07-24T13:52:32Z</time>
      </trkpt>
      <trkpt lat="46.6141" lon="5.86795">
        <ele>729.3</ele>
        <time>2013-07-24T13:52:34Z</time>
      </trkpt>
      <trkpt lat="46.61398" lon="5.86816">
        <ele>730.74</ele>
        <time>2013-07-24T13:52:47Z</time>
      </trkpt>
      <trkpt lat="46.61395" lon="5.86832">
        <ele>732.66</ele>
        <time>2013-07-24T13:53:00Z</time>
      </trkpt>
      <trkpt lat="46.61398" lon="5.86849">
        <ele>733.62</ele>
        <time>2013-07-24T13:53:18Z</time>
      </trkpt>
      <trkpt lat="46.61393" lon="5.86855">
        <ele>736.03</ele>
        <time>2013-07-24T13:53:32Z</time>
      </trkpt>
      <trkpt lat="46.61397" lon="5.86871">
        <ele>737.47</ele>
        <time>2013-07-24T13:53:47Z</time>
      </trkpt>
      <trkpt lat="46.61403" lon="5.86888">
        <ele>735.07</ele>
        <time>2013-07-24T13:54:01Z</time>
      </trkpt>
      <trkpt lat="46.61409" lon="5.86891">
        <ele>735.55</ele>
        <time>2013-07-24T13:54:17Z</time>
      </trkpt>
      <trkpt lat="46.61407" lon="5.86895">
        <ele>736.03</ele>
        <time>2013-07-24T13:54:41Z</time>
      </trkpt>
      <trkpt lat="46.61396" lon="5.86887">
        <ele>736.51</ele>
        <time>2013-07-24T13:54:55Z</time>
      </trkpt>
      <trkpt lat="46.61389" lon="5.86879">
        <ele>737.95</ele>
        <time>2013-07-24T13:55:07Z</time>
      </trkpt>
      <trkpt lat="46.6138" lon="5.86889">
        <ele>737.95</ele>
        <time>2013-07-24T13:55:20Z</time>
      </trkpt>
      <trkpt lat="46.61377" lon="5.86892">
        <ele>736.99</ele>
        <time>2013-07-24T13:55:24Z</time>
      </trkpt>
      <trkpt lat="46.61367" lon="5.86904">
        <ele>736.99</ele>
        <time>2013-07-24T13:55:39Z</time>
      </trkpt>
      <trkpt lat="46.61356" lon="5.86924">
        <ele>736.99</ele>
        <time>2013-07-24T13:55:55Z</time>
      </trkpt>
      <trkpt lat="46.61349" lon="5.86942">
        <ele>737.47</ele>
        <time>2013-07-24T13:56:10Z</time>
      </trkpt>
      <trkpt lat="46.61348" lon="5.86964">
        <ele>737.95</ele>
        <time>2013-07-24T13:56:25Z</time>
      </trkpt>
      <trkpt lat="46.6134" lon="5.86984">
        <ele>737.47</ele>
        <time>2013-07-24T13:56:41Z</time>
      </trkpt>
      <trkpt lat="46.61339" lon="5.87002">
        <ele>736.99</ele>
        <time>2013-07-24T13:56:54Z</time>
      </trkpt>
      <trkpt lat="46.61339" lon="5.87024">
        <ele>736.99</ele>
        <time>2013-07-24T13:57:07Z</time>
      </trkpt>
      <trkpt lat="46.61338" lon="5.87025">
        <ele>736.99</ele>
        <time>2013-07-24T13:57:08Z</time>
      </trkpt>
      <trkpt lat="46.61338" lon="5.87038">
        <ele>737.47</ele>
        <time>2013-07-24T13:57:17Z</time>
      </trkpt>
      <trkpt lat="46.61337" lon="5.87041">
        <ele>737.47</ele>
        <time>2013-07-24T13:57:19Z</time>
      </trkpt>
      <trkpt lat="46.61336" lon="5.87049">
        <ele>736.99</ele>
        <time>2013-07-24T13:57:32Z</time>
      </trkpt>
      <trkpt lat="46.61332" lon="5.87054">
        <ele>736.51</ele>
        <time>2013-07-24T13:57:51Z</time>
      </trkpt>
      <trkpt lat="46.61331" lon="5.87053">
        <ele>736.99</ele>
        <time>2013-07-24T13:58:17Z</time>
      </trkpt>
      <trkpt lat="46.61321" lon="5.87045">
        <ele>736.51</ele>
        <time>2013-07-24T13:58:42Z</time>
      </trkpt>
      <trkpt lat="46.61311" lon="5.87047">
        <ele>736.51</ele>
        <time>2013-07-24T13:59:05Z</time>
      </trkpt>
      <trkpt lat="46.61322" lon="5.87048">
        <ele>736.51</ele>
        <time>2013-07-24T13:59:17Z</time>
      </trkpt>
      <trkpt lat="46.61329" lon="5.87049">
        <ele>736.51</ele>
        <time>2013-07-24T13:59:37Z</time>
      </trkpt>
      <trkpt lat="46.61329" lon="5.87069">
        <ele>737.47</ele>
        <time>2013-07-24T13:59:51Z</time>
      </trkpt>
      <trkpt lat="46.6133" lon="5.87083">
        <ele>738.43</ele>
        <time>2013-07-24T14:00:06Z</time>
      </trkpt>
      <trkpt lat="46.6133" lon="5.87089">
        <ele>738.91</ele>
        <time>2013-07-24T14:00:19Z</time>
      </trkpt>
      <trkpt lat="46.6133" lon="5.87092">
        <ele>738.43</ele>
        <time>2013-07-24T14:00:34Z</time>
      </trkpt>
      <trkpt lat="46.61331" lon="5.8709">
        <ele>739.39</ele>
        <time>2013-07-24T14:00:50Z</time>
      </trkpt>
      <trkpt lat="46.61327" lon="5.87095">
        <ele>738.91</ele>
        <time>2013-07-24T14:01:12Z</time>
      </trkpt>
      <trkpt lat="46.61318" lon="5.87099">
        <ele>738.43</ele>
        <time>2013-07-24T14:01:21Z</time>
      </trkpt>
      <trkpt lat="46.61316" lon="5.87098">
        <ele>739.39</ele>
        <time>2013-07-24T14:01:41Z</time>
      </trkpt>
      <trkpt lat="46.61319" lon="5.87099">
        <ele>739.39</ele>
        <time>2013-07-24T14:01:54Z</time>
      </trkpt>
      <trkpt lat="46.61319" lon="5.87107">
        <ele>738.91</ele>
        <time>2013-07-24T14:02:13Z</time>
      </trkpt>
      <trkpt lat="46.61326" lon="5.87123">
        <ele>738.43</ele>
        <time>2013-07-24T14:02:28Z</time>
      </trkpt>
      <trkpt lat="46.61328" lon="5.87139">
        <ele>738.91</ele>
        <time>2013-07-24T14:02:42Z</time>
      </trkpt>
      <trkpt lat="46.61332" lon="5.87155">
        <ele>738.43</ele>
        <time>2013-07-24T14:03:00Z</time>
      </trkpt>
      <trkpt lat="46.61322" lon="5.87153">
        <ele>737.95</ele>
        <time>2013-07-24T14:03:28Z</time>
      </trkpt>
      <trkpt lat="46.61321" lon="5.87164">
        <ele>738.43</ele>
        <time>2013-07-24T14:03:46Z</time>
      </trkpt>
      <trkpt lat="46.61324" lon="5.87188">
        <ele>738.91</ele>
        <time>2013-07-24T14:04:04Z</time>
      </trkpt>
      <trkpt lat="46.61321" lon="5.87211">
        <ele>738.91</ele>
        <time>2013-07-24T14:04:20Z</time>
      </trkpt>
      <trkpt lat="46.61332" lon="5.87224">
        <ele>738.91</ele>
        <time>2013-07-24T14:04:32Z</time>
      </trkpt>
      <trkpt lat="46.61336" lon="5.87242">
        <ele>738.43</ele>
        <time>2013-07-24T14:04:48Z</time>
      </trkpt>
      <trkpt lat="46.61336" lon="5.87267">
        <ele>738.43</ele>
        <time>2013-07-24T14:05:04Z</time>
      </trkpt>
      <trkpt lat="46.61335" lon="5.87291">
        <ele>737.95</ele>
        <time>2013-07-24T14:05:20Z</time>
      </trkpt>
      <trkpt lat="46.61341" lon="5.87319">
        <ele>737.47</ele>
        <time>2013-07-24T14:05:37Z</time>
      </trkpt>
      <trkpt lat="46.61357" lon="5.87343">
        <ele>736.99</ele>
        <time>2013-07-24T14:05:55Z</time>
      </trkpt>
      <trkpt lat="46.61371" lon="5.87364">
        <ele>736.99</ele>
        <time>2013-07-24T14:06:11Z</time>
      </trkpt>
      <trkpt lat="46.61381" lon="5.87383">
        <ele>736.99</ele>
        <time>2013-07-24T14:06:29Z</time>
      </trkpt>
      <trkpt lat="46.61369" lon="5.87406">
        <ele>737.47</ele>
        <time>2013-07-24T14:06:42Z</time>
      </trkpt>
      <trkpt lat="46.61361" lon="5.87419">
        <ele>737.95</ele>
        <time>2013-07-24T14:06:58Z</time>
      </trkpt>
      <trkpt lat="46.61351" lon="5.87435">
        <ele>738.91</ele>
        <time>2013-07-24T14:07:11Z</time>
      </trkpt>
      <trkpt lat="46.61347" lon="5.87452">
        <ele>739.87</ele>
        <time>2013-07-24T14:07:25Z</time>
      </trkpt>
      <trkpt lat="46.61343" lon="5.87471">
        <ele>740.83</ele>
        <time>2013-07-24T14:07:38Z</time>
      </trkpt>
      <trkpt lat="46.61349" lon="5.8748">
        <ele>740.35</ele>
        <time>2013-07-24T14:07:52Z</time>
      </trkpt>
      <trkpt lat="46.61348" lon="5.87482">
        <ele>739.87</ele>
        <time>2013-07-24T14:08:20Z</time>
      </trkpt>
      <trkpt lat="46.61351" lon="5.87481">
        <ele>740.83</ele>
        <time>2013-07-24T14:08:52Z</time>
      </trkpt>
      <trkpt lat="46.61342" lon="5.87478">
        <ele>739.87</ele>
        <time>2013-07-24T14:09:19Z</time>
      </trkpt>
      <trkpt lat="46.61351" lon="5.87474">
        <ele>739.87</ele>
        <time>2013-07-24T14:09:52Z</time>
      </trkpt>
      <trkpt lat="46.61345" lon="5.87475">
        <ele>739.87</ele>
        <time>2013-07-24T14:10:16Z</time>
      </trkpt>
      <trkpt lat="46.61339" lon="5.87481">
        <ele>739.87</ele>
        <time>2013-07-24T14:10:33Z</time>
      </trkpt>
      <trkpt lat="46.61339" lon="5.87481">
        <ele>739.39</ele>
        <time>2013-07-24T14:10:46Z</time>
      </trkpt>
      <trkpt lat="46.61336" lon="5.87481">
        <ele>740.35</ele>
        <time>2013-07-24T14:10:49Z</time>
      </trkpt>
      <trkpt lat="46.61331" lon="5.87483">
        <ele>740.83</ele>
        <time>2013-07-24T14:10:52Z</time>
      </trkpt>
      <trkpt lat="46.61324" lon="5.87492">
        <ele>740.83</ele>
        <time>2013-07-24T14:11:01Z</time>
      </trkpt>
      <trkpt lat="46.61322" lon="5.87495">
        <ele>740.83</ele>
        <time>2013-07-24T14:11:03Z</time>
      </trkpt>
      <trkpt lat="46.61314" lon="5.87505">
        <ele>740.83</ele>
        <time>2013-07-24T14:11:17Z</time>
      </trkpt>
      <trkpt lat="46.61312" lon="5.875">
        <ele>740.83</ele>
        <time>2013-07-24T14:11:42Z</time>
      </trkpt>
      <trkpt lat="46.61306" lon="5.8751">
        <ele>740.83</ele>
        <time>2013-07-24T14:12:00Z</time>
      </trkpt>
      <trkpt lat="46.613" lon="5.87522">
        <ele>740.83</ele>
        <time>2013-07-24T14:12:17Z</time>
      </trkpt>
      <trkpt lat="46.61293" lon="5.87535">
        <ele>741.31</ele>
        <time>2013-07-24T14:12:31Z</time>
      </trkpt>
      <trkpt lat="46.61289" lon="5.87555">
        <ele>740.83</ele>
        <time>2013-07-24T14:12:45Z</time>
      </trkpt>
      <trkpt lat="46.61289" lon="5.87562">
        <ele>741.79</ele>
        <time>2013-07-24T14:13:00Z</time>
      </trkpt>
      <trkpt lat="46.61287" lon="5.87566">
        <ele>741.31</ele>
        <time>2013-07-24T14:13:24Z</time>
      </trkpt>
      <trkpt lat="46.61277" lon="5.87582">
        <ele>741.79</ele>
        <time>2013-07-24T14:13:38Z</time>
      </trkpt>
      <trkpt lat="46.61272" lon="5.87599">
        <ele>741.79</ele>
        <time>2013-07-24T14:13:54Z</time>
      </trkpt>
      <trkpt lat="46.6127" lon="5.87618">
        <ele>741.31</ele>
        <time>2013-07-24T14:14:11Z</time>
      </trkpt>
      <trkpt lat="46.61274" lon="5.87637">
        <ele>741.31</ele>
        <time>2013-07-24T14:14:27Z</time>
      </trkpt>
      <trkpt lat="46.61269" lon="5.87657">
        <ele>741.79</ele>
        <time>2013-07-24T14:14:45Z</time>
      </trkpt>
      <trkpt lat="46.61265" lon="5.87678">
        <ele>741.79</ele>
        <time>2013-07-24T14:15:01Z</time>
      </trkpt>
      <trkpt lat="46.61262" lon="5.87697">
        <ele>741.79</ele>
        <time>2013-07-24T14:15:14Z</time>
      </trkpt>
      <trkpt lat="46.61253" lon="5.87711">
        <ele>741.79</ele>
        <time>2013-07-24T14:15:28Z</time>
      </trkpt>
      <trkpt lat="46.61249" lon="5.87731">
        <ele>741.31</ele>
        <time>2013-07-24T14:15:41Z</time>
      </trkpt>
      <trkpt lat="46.61241" lon="5.87745">
        <ele>742.28</ele>
        <time>2013-07-24T14:15:53Z</time>
      </trkpt>
      <trkpt lat="46.61234" lon="5.87761">
        <ele>742.28</ele>
        <time>2013-07-24T14:16:12Z</time>
      </trkpt>
      <trkpt lat="46.61233" lon="5.87763">
        <ele>742.28</ele>
        <time>2013-07-24T14:16:14Z</time>
      </trkpt>
      <trkpt lat="46.61226" lon="5.87778">
        <ele>742.28</ele>
        <time>2013-07-24T14:16:30Z</time>
      </trkpt>
      <trkpt lat="46.61225" lon="5.87797">
        <ele>741.31</ele>
        <time>2013-07-24T14:16:48Z</time>
      </trkpt>
      <trkpt lat="46.6122" lon="5.87818">
        <ele>740.83</ele>
        <time>2013-07-24T14:17:04Z</time>
      </trkpt>
      <trkpt lat="46.61214" lon="5.87841">
        <ele>741.79</ele>
        <time>2013-07-24T14:17:21Z</time>
      </trkpt>
      <trkpt lat="46.61207" lon="5.87861">
        <ele>743.72</ele>
        <time>2013-07-24T14:17:35Z</time>
      </trkpt>
      <trkpt lat="46.61197" lon="5.87875">
        <ele>744.68</ele>
        <time>2013-07-24T14:17:49Z</time>
      </trkpt>
      <trkpt lat="46.61197" lon="5.87891">
        <ele>742.76</ele>
        <time>2013-07-24T14:18:04Z</time>
      </trkpt>
      <trkpt lat="46.61195" lon="5.87898">
        <ele>743.24</ele>
        <time>2013-07-24T14:18:08Z</time>
      </trkpt>
      <trkpt lat="46.61185" lon="5.87926">
        <ele>743.72</ele>
        <time>2013-07-24T14:18:22Z</time>
      </trkpt>
      <trkpt lat="46.61179" lon="5.87939">
        <ele>744.2</ele>
        <time>2013-07-24T14:18:33Z</time>
      </trkpt>
      <trkpt lat="46.6118" lon="5.87942">
        <ele>743.72</ele>
        <time>2013-07-24T14:18:40Z</time>
      </trkpt>
      <trkpt lat="46.61177" lon="5.87945">
        <ele>743.72</ele>
        <time>2013-07-24T14:18:44Z</time>
      </trkpt>
      <trkpt lat="46.61169" lon="5.87952">
        <ele>744.68</ele>
        <time>2013-07-24T14:18:55Z</time>
      </trkpt>
      <trkpt lat="46.61164" lon="5.87957">
        <ele>744.2</ele>
        <time>2013-07-24T14:19:01Z</time>
      </trkpt>
      <trkpt lat="46.61161" lon="5.8796">
        <ele>744.68</ele>
        <time>2013-07-24T14:19:06Z</time>
      </trkpt>
      <trkpt lat="46.61149" lon="5.87976">
        <ele>744.2</ele>
        <time>2013-07-24T14:19:21Z</time>
      </trkpt>
      <trkpt lat="46.61138" lon="5.87989">
        <ele>744.68</ele>
        <time>2013-07-24T14:19:35Z</time>
      </trkpt>
      <trkpt lat="46.61126" lon="5.88004">
        <ele>745.16</ele>
        <time>2013-07-24T14:19:50Z</time>
      </trkpt>
      <trkpt lat="46.61126" lon="5.88011">
        <ele>745.16</ele>
        <time>2013-07-24T14:20:05Z</time>
      </trkpt>
      <trkpt lat="46.61131" lon="5.88022">
        <ele>744.68</ele>
        <time>2013-07-24T14:20:36Z</time>
      </trkpt>
      <trkpt lat="46.61117" lon="5.88033">
        <ele>745.16</ele>
        <time>2013-07-24T14:20:52Z</time>
      </trkpt>
      <trkpt lat="46.6111" lon="5.88045">
        <ele>745.16</ele>
        <time>2013-07-24T14:21:08Z</time>
      </trkpt>
      <trkpt lat="46.61093" lon="5.88065">
        <ele>745.64</ele>
        <time>2013-07-24T14:21:30Z</time>
      </trkpt>
      <trkpt lat="46.61088" lon="5.88071">
        <ele>746.12</ele>
        <time>2013-07-24T14:21:37Z</time>
      </trkpt>
      <trkpt lat="46.6108" lon="5.88087">
        <ele>746.12</ele>
        <time>2013-07-24T14:21:52Z</time>
      </trkpt>
      <trkpt lat="46.61081" lon="5.8809">
        <ele>745.64</ele>
        <time>2013-07-24T14:22:16Z</time>
      </trkpt>
      <trkpt lat="46.61082" lon="5.88083">
        <ele>746.12</ele>
        <time>2013-07-24T14:22:42Z</time>
      </trkpt>
      <trkpt lat="46.61078" lon="5.88084">
        <ele>745.64</ele>
        <time>2013-07-24T14:23:09Z</time>
      </trkpt>
      <trkpt lat="46.61069" lon="5.88098">
        <ele>745.64</ele>
        <time>2013-07-24T14:23:22Z</time>
      </trkpt>
      <trkpt lat="46.61069" lon="5.88093">
        <ele>745.64</ele>
        <time>2013-07-24T14:23:48Z</time>
      </trkpt>
      <trkpt lat="46.61076" lon="5.88103">
        <ele>745.64</ele>
        <time>2013-07-24T14:23:52Z</time>
      </trkpt>
      <trkpt lat="46.61078" lon="5.88121">
        <ele>746.12</ele>
        <time>2013-07-24T14:24:02Z</time>
      </trkpt>
      <trkpt lat="46.61079" lon="5.88123">
        <ele>745.64</ele>
        <time>2013-07-24T14:24:04Z</time>
      </trkpt>
      <trkpt lat="46.61091" lon="5.88144">
        <ele>748.52</ele>
        <time>2013-07-24T14:24:21Z</time>
      </trkpt>
      <trkpt lat="46.61099" lon="5.88163">
        <ele>750.93</ele>
        <time>2013-07-24T14:24:37Z</time>
      </trkpt>
      <trkpt lat="46.61097" lon="5.88168">
        <ele>751.89</ele>
        <time>2013-07-24T14:24:53Z</time>
      </trkpt>
      <trkpt lat="46.61108" lon="5.88182">
        <ele>751.89</ele>
        <time>2013-07-24T14:25:08Z</time>
      </trkpt>
      <trkpt lat="46.61119" lon="5.88193">
        <ele>750.45</ele>
        <time>2013-07-24T14:25:25Z</time>
      </trkpt>
      <trkpt lat="46.61132" lon="5.88206">
        <ele>750.45</ele>
        <time>2013-07-24T14:25:40Z</time>
      </trkpt>
      <trkpt lat="46.61148" lon="5.88225">
        <ele>749.97</ele>
        <time>2013-07-24T14:25:56Z</time>
      </trkpt>
      <trkpt lat="46.61154" lon="5.88244">
        <ele>748.52</ele>
        <time>2013-07-24T14:26:09Z</time>
      </trkpt>
      <trkpt lat="46.6116" lon="5.88269">
        <ele>748.04</ele>
        <time>2013-07-24T14:26:23Z</time>
      </trkpt>
      <trkpt lat="46.6116" lon="5.88271">
        <ele>748.04</ele>
        <time>2013-07-24T14:26:24Z</time>
      </trkpt>
      <trkpt lat="46.61159" lon="5.88299">
        <ele>749.49</ele>
        <time>2013-07-24T14:26:42Z</time>
      </trkpt>
      <trkpt lat="46.61159" lon="5.88315">
        <ele>749.97</ele>
        <time>2013-07-24T14:26:54Z</time>
      </trkpt>
      <trkpt lat="46.6116" lon="5.88319">
        <ele>749.97</ele>
        <time>2013-07-24T14:26:58Z</time>
      </trkpt>
      <trkpt lat="46.61161" lon="5.88322">
        <ele>749.97</ele>
        <time>2013-07-24T14:27:00Z</time>
      </trkpt>
      <trkpt lat="46.61169" lon="5.88334">
        <ele>749.49</ele>
        <time>2013-07-24T14:27:11Z</time>
      </trkpt>
      <trkpt lat="46.61182" lon="5.88346">
        <ele>749</ele>
        <time>2013-07-24T14:27:26Z</time>
      </trkpt>
      <trkpt lat="46.61184" lon="5.88348">
        <ele>749</ele>
        <time>2013-07-24T14:27:29Z</time>
      </trkpt>
      <trkpt lat="46.61178" lon="5.88359">
        <ele>749.97</ele>
        <time>2013-07-24T14:27:40Z</time>
      </trkpt>
      <trkpt lat="46.61176" lon="5.88372">
        <ele>751.41</ele>
        <time>2013-07-24T14:27:52Z</time>
      </trkpt>
      <trkpt lat="46.61179" lon="5.88387">
        <ele>752.85</ele>
        <time>2013-07-24T14:28:06Z</time>
      </trkpt>
      <trkpt lat="46.61176" lon="5.88395">
        <ele>753.33</ele>
        <time>2013-07-24T14:28:17Z</time>
      </trkpt>
      <trkpt lat="46.61177" lon="5.88401">
        <ele>752.85</ele>
        <time>2013-07-24T14:28:38Z</time>
      </trkpt>
      <trkpt lat="46.61169" lon="5.88376">
        <ele>752.85</ele>
        <time>2013-07-24T14:29:08Z</time>
      </trkpt>
      <trkpt lat="46.61178" lon="5.88421">
        <ele>753.33</ele>
        <time>2013-07-24T14:32:21Z</time>
      </trkpt>
      <trkpt lat="46.61181" lon="5.88401">
        <ele>752.85</ele>
        <time>2013-07-24T14:32:46Z</time>
      </trkpt>
      <trkpt lat="46.61172" lon="5.88403">
        <ele>752.85</ele>
        <time>2013-07-24T14:33:15Z</time>
      </trkpt>
      <trkpt lat="46.61162" lon="5.884">
        <ele>753.33</ele>
        <time>2013-07-24T14:33:42Z</time>
      </trkpt>
      <trkpt lat="46.61165" lon="5.88387">
        <ele>752.85</ele>
        <time>2013-07-24T14:34:04Z</time>
      </trkpt>
      <trkpt lat="46.6118" lon="5.88399">
        <ele>752.85</ele>
        <time>2013-07-24T14:34:53Z</time>
      </trkpt>
      <trkpt lat="46.61186" lon="5.88407">
        <ele>753.33</ele>
        <time>2013-07-24T14:35:39Z</time>
      </trkpt>
      <trkpt lat="46.61188" lon="5.88406">
        <ele>753.33</ele>
        <time>2013-07-24T14:36:05Z</time>
      </trkpt>
      <trkpt lat="46.61201" lon="5.8841">
        <ele>753.81</ele>
        <time>2013-07-24T14:36:23Z</time>
      </trkpt>
      <trkpt lat="46.61198" lon="5.88419">
        <ele>753.33</ele>
        <time>2013-07-24T14:36:48Z</time>
      </trkpt>
      <trkpt lat="46.61198" lon="5.88426">
        <ele>753.81</ele>
        <time>2013-07-24T14:37:16Z</time>
      </trkpt>
      <trkpt lat="46.61206" lon="5.8841">
        <ele>753.33</ele>
        <time>2013-07-24T14:37:39Z</time>
      </trkpt>
      <trkpt lat="46.61218" lon="5.88413">
        <ele>753.33</ele>
        <time>2013-07-24T14:38:06Z</time>
      </trkpt>
      <trkpt lat="46.61196" lon="5.88395">
        <ele>750.93</ele>
        <time>2013-07-24T14:38:28Z</time>
      </trkpt>
      <trkpt lat="46.61187" lon="5.88391">
        <ele>751.41</ele>
        <time>2013-07-24T14:38:53Z</time>
      </trkpt>
      <trkpt lat="46.61193" lon="5.88401">
        <ele>751.89</ele>
        <time>2013-07-24T14:39:18Z</time>
      </trkpt>
      <trkpt lat="46.61185" lon="5.88405">
        <ele>751.41</ele>
        <time>2013-07-24T14:39:43Z</time>
      </trkpt>
      <trkpt lat="46.61182" lon="5.88396">
        <ele>751.89</ele>
        <time>2013-07-24T14:40:11Z</time>
      </trkpt>
      <trkpt lat="46.61183" lon="5.88385">
        <ele>751.41</ele>
        <time>2013-07-24T14:40:38Z</time>
      </trkpt>
      <trkpt lat="46.61178" lon="5.88389">
        <ele>751.41</ele>
        <time>2013-07-24T14:41:05Z</time>
      </trkpt>
      <trkpt lat="46.6117" lon="5.8839">
        <ele>751.41</ele>
        <time>2013-07-24T14:41:33Z</time>
      </trkpt>
      <trkpt lat="46.61173" lon="5.88392">
        <ele>750.93</ele>
        <time>2013-07-24T14:41:54Z</time>
      </trkpt>
      <trkpt lat="46.61175" lon="5.88395">
        <ele>750.93</ele>
        <time>2013-07-24T14:42:22Z</time>
      </trkpt>
      <trkpt lat="46.61176" lon="5.88382">
        <ele>750.93</ele>
        <time>2013-07-24T14:42:49Z</time>
      </trkpt>
      <trkpt lat="46.61178" lon="5.88387">
        <ele>750.93</ele>
        <time>2013-07-24T14:43:13Z</time>
      </trkpt>
      <trkpt lat="46.6119" lon="5.88388">
        <ele>751.89</ele>
        <time>2013-07-24T14:43:39Z</time>
      </trkpt>
      <trkpt lat="46.61196" lon="5.88377">
        <ele>751.41</ele>
        <time>2013-07-24T14:44:08Z</time>
      </trkpt>
      <trkpt lat="46.61196" lon="5.88382">
        <ele>751.41</ele>
        <time>2013-07-24T14:44:37Z</time>
      </trkpt>
      <trkpt lat="46.61201" lon="5.88379">
        <ele>753.81</ele>
        <time>2013-07-24T14:45:10Z</time>
      </trkpt>
      <trkpt lat="46.61188" lon="5.88387">
        <ele>754.77</ele>
        <time>2013-07-24T14:45:48Z</time>
      </trkpt>
      <trkpt lat="46.61178" lon="5.88378">
        <ele>756.21</ele>
        <time>2013-07-24T14:46:20Z</time>
      </trkpt>
      <trkpt lat="46.61185" lon="5.88365">
        <ele>757.18</ele>
        <time>2013-07-24T14:46:39Z</time>
      </trkpt>
      <trkpt lat="46.6119" lon="5.8836">
        <ele>757.18</ele>
        <time>2013-07-24T14:46:52Z</time>
      </trkpt>
      <trkpt lat="46.61185" lon="5.88359">
        <ele>757.18</ele>
        <time>2013-07-24T14:47:12Z</time>
      </trkpt>
      <trkpt lat="46.61184" lon="5.8835">
        <ele>757.18</ele>
        <time>2013-07-24T14:47:27Z</time>
      </trkpt>
      <trkpt lat="46.61187" lon="5.88355">
        <ele>756.21</ele>
        <time>2013-07-24T14:47:44Z</time>
      </trkpt>
      <trkpt lat="46.61193" lon="5.88346">
        <ele>756.69</ele>
        <time>2013-07-24T14:48:03Z</time>
      </trkpt>
      <trkpt lat="46.61187" lon="5.8834">
        <ele>756.69</ele>
        <time>2013-07-24T14:48:24Z</time>
      </trkpt>
      <trkpt lat="46.6119" lon="5.88336">
        <ele>755.73</ele>
        <time>2013-07-24T14:48:38Z</time>
      </trkpt>
      <trkpt lat="46.6119" lon="5.88333">
        <ele>755.25</ele>
        <time>2013-07-24T14:48:41Z</time>
      </trkpt>
      <trkpt lat="46.6119" lon="5.88323">
        <ele>756.21</ele>
        <time>2013-07-24T14:48:55Z</time>
      </trkpt>
      <trkpt lat="46.61188" lon="5.88318">
        <ele>756.21</ele>
        <time>2013-07-24T14:49:19Z</time>
      </trkpt>
      <trkpt lat="46.61181" lon="5.88303">
        <ele>756.21</ele>
        <time>2013-07-24T14:49:36Z</time>
      </trkpt>
      <trkpt lat="46.61169" lon="5.88299">
        <ele>756.21</ele>
        <time>2013-07-24T14:49:51Z</time>
      </trkpt>
      <trkpt lat="46.61166" lon="5.88302">
        <ele>757.18</ele>
        <time>2013-07-24T14:50:05Z</time>
      </trkpt>
      <trkpt lat="46.6116" lon="5.88303">
        <ele>756.69</ele>
        <time>2013-07-24T14:50:31Z</time>
      </trkpt>
      <trkpt lat="46.61163" lon="5.88294">
        <ele>756.69</ele>
        <time>2013-07-24T14:50:44Z</time>
      </trkpt>
      <trkpt lat="46.61164" lon="5.88292">
        <ele>756.21</ele>
        <time>2013-07-24T14:50:46Z</time>
      </trkpt>
      <trkpt lat="46.61167" lon="5.88278">
        <ele>755.73</ele>
        <time>2013-07-24T14:50:58Z</time>
      </trkpt>
      <trkpt lat="46.61165" lon="5.88259">
        <ele>755.73</ele>
        <time>2013-07-24T14:51:13Z</time>
      </trkpt>
      <trkpt lat="46.61164" lon="5.88247">
        <ele>755.73</ele>
        <time>2013-07-24T14:51:23Z</time>
      </trkpt>
      <trkpt lat="46.61156" lon="5.88232">
        <ele>757.18</ele>
        <time>2013-07-24T14:51:38Z</time>
      </trkpt>
      <trkpt lat="46.61143" lon="5.88215">
        <ele>757.66</ele>
        <time>2013-07-24T14:51:55Z</time>
      </trkpt>
      <trkpt lat="46.61126" lon="5.88201">
        <ele>757.18</ele>
        <time>2013-07-24T14:52:14Z</time>
      </trkpt>
      <trkpt lat="46.61114" lon="5.8819">
        <ele>758.14</ele>
        <time>2013-07-24T14:52:30Z</time>
      </trkpt>
      <trkpt lat="46.61101" lon="5.88179">
        <ele>757.66</ele>
        <time>2013-07-24T14:52:46Z</time>
      </trkpt>
      <trkpt lat="46.61094" lon="5.88159">
        <ele>756.21</ele>
        <time>2013-07-24T14:53:01Z</time>
      </trkpt>
      <trkpt lat="46.61084" lon="5.88142">
        <ele>753.81</ele>
        <time>2013-07-24T14:53:17Z</time>
      </trkpt>
      <trkpt lat="46.61076" lon="5.88114">
        <ele>752.37</ele>
        <time>2013-07-24T14:53:31Z</time>
      </trkpt>
      <trkpt lat="46.61088" lon="5.88081">
        <ele>751.89</ele>
        <time>2013-07-24T14:53:50Z</time>
      </trkpt>
      <trkpt lat="46.61098" lon="5.88063">
        <ele>750.93</ele>
        <time>2013-07-24T14:54:05Z</time>
      </trkpt>
      <trkpt lat="46.61112" lon="5.8805">
        <ele>749.97</ele>
        <time>2013-07-24T14:54:20Z</time>
      </trkpt>
      <trkpt lat="46.61122" lon="5.88039">
        <ele>749.97</ele>
        <time>2013-07-24T14:54:34Z</time>
      </trkpt>
      <trkpt lat="46.6113" lon="5.88018">
        <ele>749.97</ele>
        <time>2013-07-24T14:54:53Z</time>
      </trkpt>
      <trkpt lat="46.61137" lon="5.87996">
        <ele>749.97</ele>
        <time>2013-07-24T14:55:09Z</time>
      </trkpt>
      <trkpt lat="46.61142" lon="5.87986">
        <ele>749.49</ele>
        <time>2013-07-24T14:55:21Z</time>
      </trkpt>
      <trkpt lat="46.61155" lon="5.87973">
        <ele>749</ele>
        <time>2013-07-24T14:55:36Z</time>
      </trkpt>
      <trkpt lat="46.61166" lon="5.87958">
        <ele>748.52</ele>
        <time>2013-07-24T14:55:52Z</time>
      </trkpt>
      <trkpt lat="46.61171" lon="5.87949">
        <ele>748.52</ele>
        <time>2013-07-24T14:55:59Z</time>
      </trkpt>
      <trkpt lat="46.61174" lon="5.87943">
        <ele>748.52</ele>
        <time>2013-07-24T14:56:04Z</time>
      </trkpt>
      <trkpt lat="46.6119" lon="5.87926">
        <ele>747.08</ele>
        <time>2013-07-24T14:56:20Z</time>
      </trkpt>
      <trkpt lat="46.61196" lon="5.87913">
        <ele>746.12</ele>
        <time>2013-07-24T14:56:33Z</time>
      </trkpt>
      <trkpt lat="46.61202" lon="5.87885">
        <ele>746.6</ele>
        <time>2013-07-24T14:56:52Z</time>
      </trkpt>
      <trkpt lat="46.61212" lon="5.87868">
        <ele>747.08</ele>
        <time>2013-07-24T14:57:07Z</time>
      </trkpt>
      <trkpt lat="46.61223" lon="5.8785">
        <ele>744.68</ele>
        <time>2013-07-24T14:57:23Z</time>
      </trkpt>
      <trkpt lat="46.6123" lon="5.87824">
        <ele>743.24</ele>
        <time>2013-07-24T14:57:39Z</time>
      </trkpt>
      <trkpt lat="46.61234" lon="5.87803">
        <ele>742.76</ele>
        <time>2013-07-24T14:57:55Z</time>
      </trkpt>
      <trkpt lat="46.61238" lon="5.87765">
        <ele>743.72</ele>
        <time>2013-07-24T14:58:16Z</time>
      </trkpt>
      <trkpt lat="46.61243" lon="5.87758">
        <ele>744.68</ele>
        <time>2013-07-24T14:58:22Z</time>
      </trkpt>
      <trkpt lat="46.61258" lon="5.87732">
        <ele>742.76</ele>
        <time>2013-07-24T14:58:44Z</time>
      </trkpt>
      <trkpt lat="46.61268" lon="5.87697">
        <ele>742.28</ele>
        <time>2013-07-24T14:59:10Z</time>
      </trkpt>
      <trkpt lat="46.61272" lon="5.87663">
        <ele>741.79</ele>
        <time>2013-07-24T14:59:35Z</time>
      </trkpt>
      <trkpt lat="46.61278" lon="5.87616">
        <ele>740.83</ele>
        <time>2013-07-24T15:00:01Z</time>
      </trkpt>
      <trkpt lat="46.6128" lon="5.87575">
        <ele>740.83</ele>
        <time>2013-07-24T15:00:24Z</time>
      </trkpt>
      <trkpt lat="46.61291" lon="5.87553">
        <ele>739.87</ele>
        <time>2013-07-24T15:00:47Z</time>
      </trkpt>
      <trkpt lat="46.61313" lon="5.87528">
        <ele>739.87</ele>
        <time>2013-07-24T15:01:12Z</time>
      </trkpt>
      <trkpt lat="46.61332" lon="5.87502">
        <ele>739.87</ele>
        <time>2013-07-24T15:01:32Z</time>
      </trkpt>
      <trkpt lat="46.61351" lon="5.87477">
        <ele>739.87</ele>
        <time>2013-07-24T15:01:55Z</time>
      </trkpt>
      <trkpt lat="46.61356" lon="5.87469">
        <ele>738.91</ele>
        <time>2013-07-24T15:02:01Z</time>
      </trkpt>
      <trkpt lat="46.61358" lon="5.87438">
        <ele>736.51</ele>
        <time>2013-07-24T15:02:24Z</time>
      </trkpt>
      <trkpt lat="46.61378" lon="5.87413">
        <ele>735.55</ele>
        <time>2013-07-24T15:02:46Z</time>
      </trkpt>
      <trkpt lat="46.61371" lon="5.87386">
        <ele>734.1</ele>
        <time>2013-07-24T15:03:07Z</time>
      </trkpt>
      <trkpt lat="46.61353" lon="5.87365">
        <ele>734.58</ele>
        <time>2013-07-24T15:03:30Z</time>
      </trkpt>
      <trkpt lat="46.61351" lon="5.87347">
        <ele>733.62</ele>
        <time>2013-07-24T15:03:52Z</time>
      </trkpt>
      <trkpt lat="46.61345" lon="5.8731">
        <ele>733.62</ele>
        <time>2013-07-24T15:04:10Z</time>
      </trkpt>
      <trkpt lat="46.61342" lon="5.87278">
        <ele>733.62</ele>
        <time>2013-07-24T15:04:36Z</time>
      </trkpt>
      <trkpt lat="46.61331" lon="5.87248">
        <ele>734.1</ele>
        <time>2013-07-24T15:04:50Z</time>
      </trkpt>
      <trkpt lat="46.61328" lon="5.87219">
        <ele>734.58</ele>
        <time>2013-07-24T15:05:07Z</time>
      </trkpt>
      <trkpt lat="46.61329" lon="5.87195">
        <ele>733.62</ele>
        <time>2013-07-24T15:05:27Z</time>
      </trkpt>
      <trkpt lat="46.61333" lon="5.87169">
        <ele>733.62</ele>
        <time>2013-07-24T15:05:45Z</time>
      </trkpt>
      <trkpt lat="46.61339" lon="5.87132">
        <ele>733.14</ele>
        <time>2013-07-24T15:06:06Z</time>
      </trkpt>
      <trkpt lat="46.61339" lon="5.87103">
        <ele>733.14</ele>
        <time>2013-07-24T15:06:26Z</time>
      </trkpt>
      <trkpt lat="46.61338" lon="5.8708">
        <ele>731.22</ele>
        <time>2013-07-24T15:06:46Z</time>
      </trkpt>
      <trkpt lat="46.61339" lon="5.87047">
        <ele>728.82</ele>
        <time>2013-07-24T15:07:08Z</time>
      </trkpt>
      <trkpt lat="46.61345" lon="5.87018">
        <ele>728.82</ele>
        <time>2013-07-24T15:07:23Z</time>
      </trkpt>
      <trkpt lat="46.61344" lon="5.87002">
        <ele>727.86</ele>
        <time>2013-07-24T15:07:35Z</time>
      </trkpt>
      <trkpt lat="46.61352" lon="5.86979">
        <ele>728.82</ele>
        <time>2013-07-24T15:07:51Z</time>
      </trkpt>
      <trkpt lat="46.61354" lon="5.86954">
        <ele>728.34</ele>
        <time>2013-07-24T15:08:07Z</time>
      </trkpt>
      <trkpt lat="46.61359" lon="5.86933">
        <ele>727.37</ele>
        <time>2013-07-24T15:08:20Z</time>
      </trkpt>
      <trkpt lat="46.61366" lon="5.86918">
        <ele>727.86</ele>
        <time>2013-07-24T15:08:33Z</time>
      </trkpt>
      <trkpt lat="46.61376" lon="5.86904">
        <ele>727.86</ele>
        <time>2013-07-24T15:08:47Z</time>
      </trkpt>
      <trkpt lat="46.61393" lon="5.86885">
        <ele>728.34</ele>
        <time>2013-07-24T15:09:03Z</time>
      </trkpt>
      <trkpt lat="46.6139" lon="5.86864">
        <ele>729.3</ele>
        <time>2013-07-24T15:09:19Z</time>
      </trkpt>
      <trkpt lat="46.61387" lon="5.86861">
        <ele>729.78</ele>
        <time>2013-07-24T15:09:34Z</time>
      </trkpt>
      <trkpt lat="46.6139" lon="5.86856">
        <ele>730.26</ele>
        <time>2013-07-24T15:09:47Z</time>
      </trkpt>
      <trkpt lat="46.6139" lon="5.86857">
        <ele>729.78</ele>
        <time>2013-07-24T15:10:07Z</time>
      </trkpt>
      <trkpt lat="46.61392" lon="5.86856">
        <ele>729.78</ele>
        <time>2013-07-24T15:10:26Z</time>
      </trkpt>
      <trkpt lat="46.61387" lon="5.86861">
        <ele>729.78</ele>
        <time>2013-07-24T15:10:59Z</time>
      </trkpt>
      <trkpt lat="46.61385" lon="5.86854">
        <ele>729.78</ele>
        <time>2013-07-24T15:11:28Z</time>
      </trkpt>
      <trkpt lat="46.61383" lon="5.86854">
        <ele>730.26</ele>
        <time>2013-07-24T15:11:59Z</time>
      </trkpt>
      <trkpt lat="46.6139" lon="5.86865">
        <ele>730.26</ele>
        <time>2013-07-24T15:12:38Z</time>
      </trkpt>
      <trkpt lat="46.61393" lon="5.8686">
        <ele>730.74</ele>
        <time>2013-07-24T15:13:08Z</time>
      </trkpt>
      <trkpt lat="46.61396" lon="5.86856">
        <ele>730.74</ele>
        <time>2013-07-24T15:13:38Z</time>
      </trkpt>
      <trkpt lat="46.61394" lon="5.86861">
        <ele>731.22</ele>
        <time>2013-07-24T15:14:14Z</time>
      </trkpt>
      <trkpt lat="46.61398" lon="5.86863">
        <ele>731.22</ele>
        <time>2013-07-24T15:14:50Z</time>
      </trkpt>
      <trkpt lat="46.61391" lon="5.86861">
        <ele>731.7</ele>
        <time>2013-07-24T15:15:26Z</time>
      </trkpt>
      <trkpt lat="46.61392" lon="5.86862">
        <ele>731.7</ele>
        <time>2013-07-24T15:16:05Z</time>
      </trkpt>
      <trkpt lat="46.6139" lon="5.86865">
        <ele>731.7</ele>
        <time>2013-07-24T15:16:40Z</time>
      </trkpt>
      <trkpt lat="46.61392" lon="5.86859">
        <ele>731.22</ele>
        <time>2013-07-24T15:17:14Z</time>
      </trkpt>
      <trkpt lat="46.61393" lon="5.86855">
        <ele>732.18</ele>
        <time>2013-07-24T15:17:47Z</time>
      </trkpt>
      <trkpt lat="46.61394" lon="5.86861">
        <ele>731.7</ele>
        <time>2013-07-24T15:18:24Z</time>
      </trkpt>
      <trkpt lat="46.61393" lon="5.86858">
        <ele>732.18</ele>
        <time>2013-07-24T15:19:08Z</time>
      </trkpt>
      <trkpt lat="46.61396" lon="5.86857">
        <ele>732.66</ele>
        <time>2013-07-24T15:19:48Z</time>
      </trkpt>
      <trkpt lat="46.61394" lon="5.86856">
        <ele>732.18</ele>
        <time>2013-07-24T15:20:24Z</time>
      </trkpt>
      <trkpt lat="46.61393" lon="5.86859">
        <ele>732.66</ele>
        <time>2013-07-24T15:20:58Z</time>
      </trkpt>
      <trkpt lat="46.61396" lon="5.86862">
        <ele>732.18</ele>
        <time>2013-07-24T15:21:38Z</time>
      </trkpt>
      <trkpt lat="46.61397" lon="5.86861">
        <ele>732.66</ele>
        <time>2013-07-24T15:22:13Z</time>
      </trkpt>
      <trkpt lat="46.61395" lon="5.8686">
        <ele>732.66</ele>
        <time>2013-07-24T15:22:45Z</time>
      </trkpt>
      <trkpt lat="46.61395" lon="5.86859">
        <ele>732.66</ele>
        <time>2013-07-24T15:23:18Z</time>
      </trkpt>
      <trkpt lat="46.61399" lon="5.86868">
        <ele>732.66</ele>
        <time>2013-07-24T15:23:54Z</time>
      </trkpt>
      <trkpt lat="46.61396" lon="5.86864">
        <ele>733.14</ele>
        <time>2013-07-24T15:24:30Z</time>
      </trkpt>
      <trkpt lat="46.61396" lon="5.86862">
        <ele>733.62</ele>
        <time>2013-07-24T15:24:34Z</time>
      </trkpt>
      <trkpt lat="46.61392" lon="5.86856">
        <ele>733.62</ele>
        <time>2013-07-24T15:25:11Z</time>
      </trkpt>
      <trkpt lat="46.61392" lon="5.86854">
        <ele>733.14</ele>
        <time>2013-07-24T15:25:46Z</time>
      </trkpt>
      <trkpt lat="46.61396" lon="5.86855">
        <ele>734.1</ele>
        <time>2013-07-24T15:26:18Z</time>
      </trkpt>
      <trkpt lat="46.61391" lon="5.86847">
        <ele>733.62</ele>
        <time>2013-07-24T15:26:49Z</time>
      </trkpt>
      <trkpt lat="46.61393" lon="5.86848">
        <ele>733.14</ele>
        <time>2013-07-24T15:27:24Z</time>
      </trkpt>
      <trkpt lat="46.61388" lon="5.86852">
        <ele>733.14</ele>
        <time>2013-07-24T15:27:53Z</time>
      </trkpt>
      <trkpt lat="46.61389" lon="5.86855">
        <ele>733.62</ele>
        <time>2013-07-24T15:28:12Z</time>
      </trkpt>
      <trkpt lat="46.61402" lon="5.86867">
        <ele>731.7</ele>
        <time>2013-07-24T15:28:27Z</time>
      </trkpt>
      <trkpt lat="46.61403" lon="5.86858">
        <ele>730.74</ele>
        <time>2013-07-24T15:28:46Z</time>
      </trkpt>
      <trkpt lat="46.6141" lon="5.86849">
        <ele>727.37</ele>
        <time>2013-07-24T15:29:02Z</time>
      </trkpt>
      <trkpt lat="46.61419" lon="5.86838">
        <ele>725.93</ele>
        <time>2013-07-24T15:29:19Z</time>
      </trkpt>
      <trkpt lat="46.61429" lon="5.86815">
        <ele>724.01</ele>
        <time>2013-07-24T15:29:36Z</time>
      </trkpt>
      <trkpt lat="46.61436" lon="5.86789">
        <ele>722.57</ele>
        <time>2013-07-24T15:29:55Z</time>
      </trkpt>
      <trkpt lat="46.61444" lon="5.86778">
        <ele>721.13</ele>
        <time>2013-07-24T15:30:11Z</time>
      </trkpt>
      <trkpt lat="46.61444" lon="5.86778">
        <ele>720.65</ele>
        <time>2013-07-24T15:30:12Z</time>
      </trkpt>
      <trkpt lat="46.61453" lon="5.86756">
        <ele>720.65</ele>
        <time>2013-07-24T15:30:32Z</time>
      </trkpt>
      <trkpt lat="46.61451" lon="5.86728">
        <ele>720.16</ele>
        <time>2013-07-24T15:30:47Z</time>
      </trkpt>
      <trkpt lat="46.61451" lon="5.86709">
        <ele>720.16</ele>
        <time>2013-07-24T15:30:59Z</time>
      </trkpt>
      <trkpt lat="46.61466" lon="5.86688">
        <ele>720.16</ele>
        <time>2013-07-24T15:31:18Z</time>
      </trkpt>
      <trkpt lat="46.61467" lon="5.86685">
        <ele>720.65</ele>
        <time>2013-07-24T15:31:20Z</time>
      </trkpt>
      <trkpt lat="46.6148" lon="5.86671">
        <ele>720.16</ele>
        <time>2013-07-24T15:31:31Z</time>
      </trkpt>
      <trkpt lat="46.61494" lon="5.86654">
        <ele>721.61</ele>
        <time>2013-07-24T15:31:48Z</time>
      </trkpt>
      <trkpt lat="46.61498" lon="5.86641">
        <ele>720.65</ele>
        <time>2013-07-24T15:32:05Z</time>
      </trkpt>
      <trkpt lat="46.61506" lon="5.86637">
        <ele>717.76</ele>
        <time>2013-07-24T15:32:20Z</time>
      </trkpt>
      <trkpt lat="46.61504" lon="5.86621">
        <ele>714.88</ele>
        <time>2013-07-24T15:32:32Z</time>
      </trkpt>
      <trkpt lat="46.61504" lon="5.8662">
        <ele>715.36</ele>
        <time>2013-07-24T15:32:33Z</time>
      </trkpt>
      <trkpt lat="46.61501" lon="5.86611">
        <ele>714.4</ele>
        <time>2013-07-24T15:32:40Z</time>
      </trkpt>
      <trkpt lat="46.61501" lon="5.86602">
        <ele>713.44</ele>
        <time>2013-07-24T15:32:53Z</time>
      </trkpt>
      <trkpt lat="46.6151" lon="5.86588">
        <ele>713.44</ele>
        <time>2013-07-24T15:33:11Z</time>
      </trkpt>
      <trkpt lat="46.61512" lon="5.86572">
        <ele>714.88</ele>
        <time>2013-07-24T15:33:24Z</time>
      </trkpt>
      <trkpt lat="46.61512" lon="5.86569">
        <ele>714.88</ele>
        <time>2013-07-24T15:33:27Z</time>
      </trkpt>
      <trkpt lat="46.61516" lon="5.86558">
        <ele>714.88</ele>
        <time>2013-07-24T15:33:36Z</time>
      </trkpt>
      <trkpt lat="46.61514" lon="5.86536">
        <ele>717.28</ele>
        <time>2013-07-24T15:33:48Z</time>
      </trkpt>
      <trkpt lat="46.61506" lon="5.86513">
        <ele>719.2</ele>
        <time>2013-07-24T15:34:01Z</time>
      </trkpt>
      <trkpt lat="46.61503" lon="5.86502">
        <ele>717.76</ele>
        <time>2013-07-24T15:34:13Z</time>
      </trkpt>
      <trkpt lat="46.61503" lon="5.86485">
        <ele>714.4</ele>
        <time>2013-07-24T15:34:22Z</time>
      </trkpt>
      <trkpt lat="46.61502" lon="5.8648">
        <ele>713.92</ele>
        <time>2013-07-24T15:34:24Z</time>
      </trkpt>
      <trkpt lat="46.615" lon="5.86462">
        <ele>714.88</ele>
        <time>2013-07-24T15:34:33Z</time>
      </trkpt>
      <trkpt lat="46.61505" lon="5.86444">
        <ele>714.88</ele>
        <time>2013-07-24T15:34:44Z</time>
      </trkpt>
      <trkpt lat="46.61513" lon="5.86426">
        <ele>713.92</ele>
        <time>2013-07-24T15:34:58Z</time>
      </trkpt>
      <trkpt lat="46.61513" lon="5.86415">
        <ele>711.99</ele>
        <time>2013-07-24T15:35:12Z</time>
      </trkpt>
      <trkpt lat="46.61516" lon="5.86411">
        <ele>711.99</ele>
        <time>2013-07-24T15:35:18Z</time>
      </trkpt>
      <trkpt lat="46.61509" lon="5.86391">
        <ele>711.51</ele>
        <time>2013-07-24T15:35:33Z</time>
      </trkpt>
      <trkpt lat="46.61514" lon="5.8638">
        <ele>708.15</ele>
        <time>2013-07-24T15:35:47Z</time>
      </trkpt>
      <trkpt lat="46.61515" lon="5.86379">
        <ele>708.15</ele>
        <time>2013-07-24T15:35:48Z</time>
      </trkpt>
      <trkpt lat="46.61518" lon="5.86373">
        <ele>706.71</ele>
        <time>2013-07-24T15:35:52Z</time>
      </trkpt>
      <trkpt lat="46.61521" lon="5.86359">
        <ele>709.11</ele>
        <time>2013-07-24T15:36:02Z</time>
      </trkpt>
      <trkpt lat="46.6152" lon="5.86358">
        <ele>709.11</ele>
        <time>2013-07-24T15:36:03Z</time>
      </trkpt>
      <trkpt lat="46.61523" lon="5.86338">
        <ele>706.23</ele>
        <time>2013-07-24T15:36:15Z</time>
      </trkpt>
      <trkpt lat="46.61524" lon="5.86331">
        <ele>704.78</ele>
        <time>2013-07-24T15:36:20Z</time>
      </trkpt>
      <trkpt lat="46.61522" lon="5.8631">
        <ele>704.78</ele>
        <time>2013-07-24T15:36:33Z</time>
      </trkpt>
      <trkpt lat="46.61532" lon="5.86295">
        <ele>703.82</ele>
        <time>2013-07-24T15:36:54Z</time>
      </trkpt>
      <trkpt lat="46.61549" lon="5.86279">
        <ele>704.78</ele>
        <time>2013-07-24T15:37:17Z</time>
      </trkpt>
      <trkpt lat="46.61538" lon="5.86265">
        <ele>705.26</ele>
        <time>2013-07-24T15:37:31Z</time>
      </trkpt>
      <trkpt lat="46.61534" lon="5.86262">
        <ele>704.3</ele>
        <time>2013-07-24T15:37:37Z</time>
      </trkpt>
      <trkpt lat="46.61525" lon="5.86253">
        <ele>703.34</ele>
        <time>2013-07-24T15:37:49Z</time>
      </trkpt>
      <trkpt lat="46.61519" lon="5.86246">
        <ele>704.3</ele>
        <time>2013-07-24T15:38:03Z</time>
      </trkpt>
      <trkpt lat="46.61519" lon="5.86251">
        <ele>704.3</ele>
        <time>2013-07-24T15:38:34Z</time>
      </trkpt>
      <trkpt lat="46.61514" lon="5.86248">
        <ele>704.3</ele>
        <time>2013-07-24T15:39:01Z</time>
      </trkpt>
      <trkpt lat="46.61517" lon="5.86242">
        <ele>703.82</ele>
        <time>2013-07-24T15:39:25Z</time>
      </trkpt>
      <trkpt lat="46.61522" lon="5.86239">
        <ele>705.26</ele>
        <time>2013-07-24T15:39:42Z</time>
      </trkpt>
      <trkpt lat="46.61518" lon="5.86236">
        <ele>704.78</ele>
        <time>2013-07-24T15:39:46Z</time>
      </trkpt>
      <trkpt lat="46.61509" lon="5.86227">
        <ele>702.86</ele>
        <time>2013-07-24T15:39:59Z</time>
      </trkpt>
      <trkpt lat="46.615" lon="5.86216">
        <ele>700.46</ele>
        <time>2013-07-24T15:40:12Z</time>
      </trkpt>
      <trkpt lat="46.61498" lon="5.86201">
        <ele>698.53</ele>
        <time>2013-07-24T15:40:24Z</time>
      </trkpt>
      <trkpt lat="46.61496" lon="5.86194">
        <ele>699.02</ele>
        <time>2013-07-24T15:40:29Z</time>
      </trkpt>
      <trkpt lat="46.61494" lon="5.86192">
        <ele>698.05</ele>
        <time>2013-07-24T15:40:31Z</time>
      </trkpt>
      <trkpt lat="46.6149" lon="5.86193">
        <ele>698.53</ele>
        <time>2013-07-24T15:40:49Z</time>
      </trkpt>
      <trkpt lat="46.61485" lon="5.86197">
        <ele>698.53</ele>
        <time>2013-07-24T15:41:07Z</time>
      </trkpt>
      <trkpt lat="46.61468" lon="5.86174">
        <ele>697.57</ele>
        <time>2013-07-24T15:41:19Z</time>
      </trkpt>
      <trkpt lat="46.6147" lon="5.8617">
        <ele>697.57</ele>
        <time>2013-07-24T15:41:22Z</time>
      </trkpt>
      <trkpt lat="46.61469" lon="5.8616">
        <ele>697.09</ele>
        <time>2013-07-24T15:41:28Z</time>
      </trkpt>
      <trkpt lat="46.61471" lon="5.86143">
        <ele>698.05</ele>
        <time>2013-07-24T15:41:41Z</time>
      </trkpt>
      <trkpt lat="46.6147" lon="5.8614">
        <ele>698.05</ele>
        <time>2013-07-24T15:41:43Z</time>
      </trkpt>
      <trkpt lat="46.61472" lon="5.86136">
        <ele>698.53</ele>
        <time>2013-07-24T15:41:56Z</time>
      </trkpt>
      <trkpt lat="46.61481" lon="5.86146">
        <ele>698.53</ele>
        <time>2013-07-24T15:42:19Z</time>
      </trkpt>
      <trkpt lat="46.61474" lon="5.8615">
        <ele>698.53</ele>
        <time>2013-07-24T15:42:50Z</time>
      </trkpt>
      <trkpt lat="46.61476" lon="5.86129">
        <ele>698.53</ele>
        <time>2013-07-24T15:42:51Z</time>
      </trkpt>
      <trkpt lat="46.61476" lon="5.86111">
        <ele>698.53</ele>
        <time>2013-07-24T15:43:05Z</time>
      </trkpt>
      <trkpt lat="46.61475" lon="5.86108">
        <ele>698.05</ele>
        <time>2013-07-24T15:43:10Z</time>
      </trkpt>
      <trkpt lat="46.61476" lon="5.86098">
        <ele>696.13</ele>
        <time>2013-07-24T15:43:20Z</time>
      </trkpt>
      <trkpt lat="46.61475" lon="5.86094">
        <ele>696.13</ele>
        <time>2013-07-24T15:43:23Z</time>
      </trkpt>
      <trkpt lat="46.61475" lon="5.86087">
        <ele>696.61</ele>
        <time>2013-07-24T15:43:27Z</time>
      </trkpt>
      <trkpt lat="46.61476" lon="5.86086">
        <ele>697.09</ele>
        <time>2013-07-24T15:43:28Z</time>
      </trkpt>
      <trkpt lat="46.61476" lon="5.8607">
        <ele>695.17</ele>
        <time>2013-07-24T15:43:40Z</time>
      </trkpt>
      <trkpt lat="46.6148" lon="5.86057">
        <ele>692.77</ele>
        <time>2013-07-24T15:43:55Z</time>
      </trkpt>
      <trkpt lat="46.61481" lon="5.8604">
        <ele>691.33</ele>
        <time>2013-07-24T15:44:08Z</time>
      </trkpt>
      <trkpt lat="46.61481" lon="5.86039">
        <ele>690.84</ele>
        <time>2013-07-24T15:44:09Z</time>
      </trkpt>
      <trkpt lat="46.61478" lon="5.86036">
        <ele>691.33</ele>
        <time>2013-07-24T15:44:12Z</time>
      </trkpt>
      <trkpt lat="46.61466" lon="5.86027">
        <ele>691.81</ele>
        <time>2013-07-24T15:44:25Z</time>
      </trkpt>
      <trkpt lat="46.6145" lon="5.86026">
        <ele>690.84</ele>
        <time>2013-07-24T15:44:38Z</time>
      </trkpt>
      <trkpt lat="46.61445" lon="5.8602">
        <ele>687.96</ele>
        <time>2013-07-24T15:44:53Z</time>
      </trkpt>
      <trkpt lat="46.61445" lon="5.86019">
        <ele>687.48</ele>
        <time>2013-07-24T15:44:54Z</time>
      </trkpt>
      <trkpt lat="46.61433" lon="5.8599">
        <ele>685.08</ele>
        <time>2013-07-24T15:45:07Z</time>
      </trkpt>
      <trkpt lat="46.61427" lon="5.85949">
        <ele>683.15</ele>
        <time>2013-07-24T15:45:20Z</time>
      </trkpt>
      <trkpt lat="46.61423" lon="5.85941">
        <ele>683.63</ele>
        <time>2013-07-24T15:45:23Z</time>
      </trkpt>
      <trkpt lat="46.61416" lon="5.85928">
        <ele>684.12</ele>
        <time>2013-07-24T15:45:30Z</time>
      </trkpt>
      <trkpt lat="46.61397" lon="5.85926">
        <ele>686.04</ele>
        <time>2013-07-24T15:45:43Z</time>
      </trkpt>
      <trkpt lat="46.61396" lon="5.85922">
        <ele>686.04</ele>
        <time>2013-07-24T15:45:45Z</time>
      </trkpt>
      <trkpt lat="46.61402" lon="5.85903">
        <ele>687</ele>
        <time>2013-07-24T15:45:56Z</time>
      </trkpt>
      <trkpt lat="46.614" lon="5.85904">
        <ele>686.04</ele>
        <time>2013-07-24T15:46:13Z</time>
      </trkpt>
      <trkpt lat="46.61399" lon="5.85901">
        <ele>685.08</ele>
        <time>2013-07-24T15:46:19Z</time>
      </trkpt>
      <trkpt lat="46.61397" lon="5.85899">
        <ele>685.08</ele>
        <time>2013-07-24T15:46:21Z</time>
      </trkpt>
      <trkpt lat="46.61385" lon="5.85886">
        <ele>683.15</ele>
        <time>2013-07-24T15:46:38Z</time>
      </trkpt>
      <trkpt lat="46.61376" lon="5.85878">
        <ele>682.19</ele>
        <time>2013-07-24T15:46:50Z</time>
      </trkpt>
      <trkpt lat="46.61366" lon="5.85867">
        <ele>682.67</ele>
        <time>2013-07-24T15:47:03Z</time>
      </trkpt>
      <trkpt lat="46.6136" lon="5.8585">
        <ele>681.71</ele>
        <time>2013-07-24T15:47:19Z</time>
      </trkpt>
      <trkpt lat="46.6136" lon="5.85844">
        <ele>680.27</ele>
        <time>2013-07-24T15:47:30Z</time>
      </trkpt>
      <trkpt lat="46.61359" lon="5.85851">
        <ele>679.79</ele>
        <time>2013-07-24T15:47:52Z</time>
      </trkpt>
      <trkpt lat="46.61352" lon="5.85842">
        <ele>676.42</ele>
        <time>2013-07-24T15:48:04Z</time>
      </trkpt>
      <trkpt lat="46.61353" lon="5.85828">
        <ele>673.06</ele>
        <time>2013-07-24T15:48:20Z</time>
      </trkpt>
      <trkpt lat="46.61352" lon="5.85828">
        <ele>673.06</ele>
        <time>2013-07-24T15:48:21Z</time>
      </trkpt>
      <trkpt lat="46.61352" lon="5.8582">
        <ele>671.14</ele>
        <time>2013-07-24T15:48:34Z</time>
      </trkpt>
      <trkpt lat="46.61356" lon="5.85814">
        <ele>669.7</ele>
        <time>2013-07-24T15:48:51Z</time>
      </trkpt>
      <trkpt lat="46.61359" lon="5.85808">
        <ele>667.77</ele>
        <time>2013-07-24T15:49:07Z</time>
      </trkpt>
      <trkpt lat="46.61357" lon="5.85801">
        <ele>664.89</ele>
        <time>2013-07-24T15:49:20Z</time>
      </trkpt>
      <trkpt lat="46.61358" lon="5.85796">
        <ele>663.45</ele>
        <time>2013-07-24T15:49:25Z</time>
      </trkpt>
      <trkpt lat="46.61354" lon="5.85786">
        <ele>661.04</ele>
        <time>2013-07-24T15:49:33Z</time>
      </trkpt>
      <trkpt lat="46.61355" lon="5.85776">
        <ele>658.64</ele>
        <time>2013-07-24T15:49:42Z</time>
      </trkpt>
      <trkpt lat="46.6134" lon="5.8575">
        <ele>655.28</ele>
        <time>2013-07-24T15:49:56Z</time>
      </trkpt>
      <trkpt lat="46.61336" lon="5.85739">
        <ele>653.35</ele>
        <time>2013-07-24T15:50:01Z</time>
      </trkpt>
      <trkpt lat="46.61339" lon="5.85716">
        <ele>651.91</ele>
        <time>2013-07-24T15:50:05Z</time>
      </trkpt>
      <trkpt lat="46.61343" lon="5.85703">
        <ele>648.55</ele>
        <time>2013-07-24T15:50:15Z</time>
      </trkpt>
      <trkpt lat="46.61345" lon="5.85698">
        <ele>647.59</ele>
        <time>2013-07-24T15:50:18Z</time>
      </trkpt>
      <trkpt lat="46.61346" lon="5.85696">
        <ele>647.1</ele>
        <time>2013-07-24T15:50:19Z</time>
      </trkpt>
      <trkpt lat="46.61346" lon="5.85682">
        <ele>645.66</ele>
        <time>2013-07-24T15:50:24Z</time>
      </trkpt>
      <trkpt lat="46.61346" lon="5.85673">
        <ele>643.26</ele>
        <time>2013-07-24T15:50:37Z</time>
      </trkpt>
      <trkpt lat="46.61348" lon="5.85672">
        <ele>639.89</ele>
        <time>2013-07-24T15:50:43Z</time>
      </trkpt>
      <trkpt lat="46.61349" lon="5.85672">
        <ele>639.89</ele>
        <time>2013-07-24T15:50:44Z</time>
      </trkpt>
      <trkpt lat="46.61357" lon="5.85671">
        <ele>637.49</ele>
        <time>2013-07-24T15:50:48Z</time>
      </trkpt>
      <trkpt lat="46.61348" lon="5.85653">
        <ele>634.61</ele>
        <time>2013-07-24T15:50:59Z</time>
      </trkpt>
      <trkpt lat="46.61348" lon="5.85641">
        <ele>631.24</ele>
        <time>2013-07-24T15:51:11Z</time>
      </trkpt>
      <trkpt lat="46.61353" lon="5.85642">
        <ele>627.88</ele>
        <time>2013-07-24T15:51:19Z</time>
      </trkpt>
      <trkpt lat="46.61361" lon="5.85657">
        <ele>626.44</ele>
        <time>2013-07-24T15:51:28Z</time>
      </trkpt>
      <trkpt lat="46.61387" lon="5.85655">
        <ele>626.44</ele>
        <time>2013-07-24T15:51:42Z</time>
      </trkpt>
      <trkpt lat="46.61398" lon="5.85666">
        <ele>624.99</ele>
        <time>2013-07-24T15:52:05Z</time>
      </trkpt>
      <trkpt lat="46.61426" lon="5.85673">
        <ele>626.44</ele>
        <time>2013-07-24T15:52:34Z</time>
      </trkpt>
      <trkpt lat="46.61422" lon="5.85664">
        <ele>626.92</ele>
        <time>2013-07-24T15:52:44Z</time>
      </trkpt>
      <trkpt lat="46.61402" lon="5.85638">
        <ele>625.96</ele>
        <time>2013-07-24T15:52:58Z</time>
      </trkpt>
      <trkpt lat="46.61385" lon="5.85616">
        <ele>624.03</ele>
        <time>2013-07-24T15:53:11Z</time>
      </trkpt>
      <trkpt lat="46.61373" lon="5.85608">
        <ele>622.59</ele>
        <time>2013-07-24T15:53:22Z</time>
      </trkpt>
      <trkpt lat="46.61371" lon="5.85598">
        <ele>624.03</ele>
        <time>2013-07-24T15:53:45Z</time>
      </trkpt>
      <trkpt lat="46.61365" lon="5.85569">
        <ele>623.07</ele>
        <time>2013-07-24T15:53:57Z</time>
      </trkpt>
      <trkpt lat="46.61364" lon="5.85555">
        <ele>622.11</ele>
        <time>2013-07-24T15:54:05Z</time>
      </trkpt>
      <trkpt lat="46.61368" lon="5.85551">
        <ele>621.63</ele>
        <time>2013-07-24T15:54:08Z</time>
      </trkpt>
      <trkpt lat="46.61363" lon="5.8553">
        <ele>620.67</ele>
        <time>2013-07-24T15:54:18Z</time>
      </trkpt>
      <trkpt lat="46.61363" lon="5.85521">
        <ele>620.19</ele>
        <time>2013-07-24T15:54:29Z</time>
      </trkpt>
      <trkpt lat="46.61361" lon="5.85519">
        <ele>620.19</ele>
        <time>2013-07-24T15:54:52Z</time>
      </trkpt>
      <trkpt lat="46.61373" lon="5.85542">
        <ele>621.63</ele>
        <time>2013-07-24T15:55:09Z</time>
      </trkpt>
      <trkpt lat="46.61375" lon="5.85543">
        <ele>621.15</ele>
        <time>2013-07-24T15:55:22Z</time>
      </trkpt>
      <trkpt lat="46.61378" lon="5.85542">
        <ele>622.11</ele>
        <time>2013-07-24T15:55:36Z</time>
      </trkpt>
      <trkpt lat="46.61389" lon="5.85537">
        <ele>623.55</ele>
        <time>2013-07-24T15:55:46Z</time>
      </trkpt>
      <trkpt lat="46.61391" lon="5.85529">
        <ele>622.59</ele>
        <time>2013-07-24T15:56:01Z</time>
      </trkpt>
      <trkpt lat="46.61394" lon="5.85522">
        <ele>622.11</ele>
        <time>2013-07-24T15:56:07Z</time>
      </trkpt>
      <trkpt lat="46.61392" lon="5.85521">
        <ele>622.11</ele>
        <time>2013-07-24T15:56:17Z</time>
      </trkpt>
      <trkpt lat="46.61394" lon="5.85526">
        <ele>624.03</ele>
        <time>2013-07-24T15:56:30Z</time>
      </trkpt>
      <trkpt lat="46.61399" lon="5.85534">
        <ele>622.59</ele>
        <time>2013-07-24T15:56:48Z</time>
      </trkpt>
      <trkpt lat="46.61409" lon="5.85534">
        <ele>621.15</ele>
        <time>2013-07-24T15:56:55Z</time>
      </trkpt>
      <trkpt lat="46.61412" lon="5.85534">
        <ele>621.15</ele>
        <time>2013-07-24T15:56:57Z</time>
      </trkpt>
      <trkpt lat="46.61424" lon="5.85525">
        <ele>619.23</ele>
        <time>2013-07-24T15:57:12Z</time>
      </trkpt>
      <trkpt lat="46.61423" lon="5.85506">
        <ele>617.78</ele>
        <time>2013-07-24T15:57:33Z</time>
      </trkpt>
      <trkpt lat="46.61429" lon="5.85486">
        <ele>614.9</ele>
        <time>2013-07-24T15:57:47Z</time>
      </trkpt>
      <trkpt lat="46.61434" lon="5.8547">
        <ele>613.46</ele>
        <time>2013-07-24T15:58:01Z</time>
      </trkpt>
      <trkpt lat="46.61457" lon="5.85451">
        <ele>610.09</ele>
        <time>2013-07-24T15:58:13Z</time>
      </trkpt>
      <trkpt lat="46.61464" lon="5.85449">
        <ele>609.13</ele>
        <time>2013-07-24T15:58:31Z</time>
      </trkpt>
      <trkpt lat="46.61465" lon="5.85415">
        <ele>608.65</ele>
        <time>2013-07-24T15:58:52Z</time>
      </trkpt>
      <trkpt lat="46.61458" lon="5.85379">
        <ele>606.25</ele>
        <time>2013-07-24T15:59:08Z</time>
      </trkpt>
      <trkpt lat="46.61442" lon="5.8536">
        <ele>603.85</ele>
        <time>2013-07-24T15:59:24Z</time>
      </trkpt>
      <trkpt lat="46.61451" lon="5.85384">
        <ele>604.33</ele>
        <time>2013-07-24T15:59:47Z</time>
      </trkpt>
      <trkpt lat="46.61447" lon="5.85389">
        <ele>601.44</ele>
        <time>2013-07-24T16:00:11Z</time>
      </trkpt>
      <trkpt lat="46.6144" lon="5.85385">
        <ele>598.08</ele>
        <time>2013-07-24T16:00:25Z</time>
      </trkpt>
      <trkpt lat="46.61427" lon="5.85383">
        <ele>595.19</ele>
        <time>2013-07-24T16:00:38Z</time>
      </trkpt>
      <trkpt lat="46.61424" lon="5.85398">
        <ele>591.35</ele>
        <time>2013-07-24T16:00:54Z</time>
      </trkpt>
      <trkpt lat="46.61443" lon="5.85432">
        <ele>588.46</ele>
        <time>2013-07-24T16:01:11Z</time>
      </trkpt>
      <trkpt lat="46.61447" lon="5.85436">
        <ele>588.95</ele>
        <time>2013-07-24T16:01:21Z</time>
      </trkpt>
      <trkpt lat="46.61432" lon="5.85434">
        <ele>587.5</ele>
        <time>2013-07-24T16:01:35Z</time>
      </trkpt>
      <trkpt lat="46.61416" lon="5.8545">
        <ele>588.46</ele>
        <time>2013-07-24T16:01:47Z</time>
      </trkpt>
      <trkpt lat="46.61398" lon="5.85456">
        <ele>587.5</ele>
        <time>2013-07-24T16:02:15Z</time>
      </trkpt>
      <trkpt lat="46.61385" lon="5.85463">
        <ele>588.95</ele>
        <time>2013-07-24T16:02:28Z</time>
      </trkpt>
      <trkpt lat="46.61384" lon="5.85465">
        <ele>588.95</ele>
        <time>2013-07-24T16:02:29Z</time>
      </trkpt>
      <trkpt lat="46.6138" lon="5.85469">
        <ele>588.95</ele>
        <time>2013-07-24T16:02:31Z</time>
      </trkpt>
      <trkpt lat="46.61362" lon="5.85457">
        <ele>587.5</ele>
        <time>2013-07-24T16:02:49Z</time>
      </trkpt>
      <trkpt lat="46.61355" lon="5.85444">
        <ele>587.5</ele>
        <time>2013-07-24T16:03:17Z</time>
      </trkpt>
      <trkpt lat="46.6136" lon="5.85434">
        <ele>587.5</ele>
        <time>2013-07-24T16:03:30Z</time>
      </trkpt>
      <trkpt lat="46.61399" lon="5.85466">
        <ele>587.5</ele>
        <time>2013-07-24T16:03:54Z</time>
      </trkpt>
      <trkpt lat="46.61367" lon="5.85447">
        <ele>588.46</ele>
        <time>2013-07-24T16:04:46Z</time>
      </trkpt>
      <trkpt lat="46.61351" lon="5.8518">
        <ele>560.59</ele>
        <time>2013-07-24T16:10:52Z</time>
      </trkpt>
      <trkpt lat="46.61355" lon="5.85163">
        <ele>559.14</ele>
        <time>2013-07-24T16:11:07Z</time>
      </trkpt>
      <trkpt lat="46.61376" lon="5.85148">
        <ele>558.18</ele>
        <time>2013-07-24T16:11:20Z</time>
      </trkpt>
      <trkpt lat="46.61366" lon="5.85128">
        <ele>557.22</ele>
        <time>2013-07-24T16:11:36Z</time>
      </trkpt>
      <trkpt lat="46.61356" lon="5.85134">
        <ele>556.26</ele>
        <time>2013-07-24T16:12:01Z</time>
      </trkpt>
      <trkpt lat="46.61354" lon="5.85134">
        <ele>556.26</ele>
        <time>2013-07-24T16:12:03Z</time>
      </trkpt>
      <trkpt lat="46.61334" lon="5.85126">
        <ele>556.74</ele>
        <time>2013-07-24T16:12:17Z</time>
      </trkpt>
      <trkpt lat="46.61328" lon="5.85117">
        <ele>556.26</ele>
        <time>2013-07-24T16:12:22Z</time>
      </trkpt>
      <trkpt lat="46.61337" lon="5.85106">
        <ele>555.78</ele>
        <time>2013-07-24T16:12:26Z</time>
      </trkpt>
      <trkpt lat="46.61336" lon="5.851">
        <ele>556.26</ele>
        <time>2013-07-24T16:12:29Z</time>
      </trkpt>
      <trkpt lat="46.61358" lon="5.8508">
        <ele>555.3</ele>
        <time>2013-07-24T16:12:42Z</time>
      </trkpt>
      <trkpt lat="46.61363" lon="5.85065">
        <ele>554.82</ele>
        <time>2013-07-24T16:12:52Z</time>
      </trkpt>
      <trkpt lat="46.61368" lon="5.85054">
        <ele>553.38</ele>
        <time>2013-07-24T16:13:00Z</time>
      </trkpt>
      <trkpt lat="46.61377" lon="5.85038">
        <ele>553.38</ele>
        <time>2013-07-24T16:13:12Z</time>
      </trkpt>
      <trkpt lat="46.61379" lon="5.85031">
        <ele>553.86</ele>
        <time>2013-07-24T16:13:32Z</time>
      </trkpt>
      <trkpt lat="46.61377" lon="5.85011">
        <ele>554.34</ele>
        <time>2013-07-24T16:13:43Z</time>
      </trkpt>
      <trkpt lat="46.61375" lon="5.8501">
        <ele>553.38</ele>
        <time>2013-07-24T16:13:49Z</time>
      </trkpt>
      <trkpt lat="46.61372" lon="5.85005">
        <ele>552.9</ele>
        <time>2013-07-24T16:13:51Z</time>
      </trkpt>
      <trkpt lat="46.61367" lon="5.85001">
        <ele>552.41</ele>
        <time>2013-07-24T16:13:54Z</time>
      </trkpt>
      <trkpt lat="46.61363" lon="5.84991">
        <ele>552.41</ele>
        <time>2013-07-24T16:13:59Z</time>
      </trkpt>
      <trkpt lat="46.61349" lon="5.84976">
        <ele>551.93</ele>
        <time>2013-07-24T16:14:09Z</time>
      </trkpt>
      <trkpt lat="46.61354" lon="5.84958">
        <ele>551.45</ele>
        <time>2013-07-24T16:14:22Z</time>
      </trkpt>
      <trkpt lat="46.61359" lon="5.84941">
        <ele>551.45</ele>
        <time>2013-07-24T16:14:34Z</time>
      </trkpt>
      <trkpt lat="46.61373" lon="5.84928">
        <ele>550.97</ele>
        <time>2013-07-24T16:14:48Z</time>
      </trkpt>
      <trkpt lat="46.61379" lon="5.84916">
        <ele>551.45</ele>
        <time>2013-07-24T16:15:01Z</time>
      </trkpt>
      <trkpt lat="46.61384" lon="5.84906">
        <ele>550.01</ele>
        <time>2013-07-24T16:15:13Z</time>
      </trkpt>
      <trkpt lat="46.61389" lon="5.84903">
        <ele>550.01</ele>
        <time>2013-07-24T16:15:17Z</time>
      </trkpt>
      <trkpt lat="46.61401" lon="5.8489">
        <ele>549.53</ele>
        <time>2013-07-24T16:15:32Z</time>
      </trkpt>
      <trkpt lat="46.61405" lon="5.84874">
        <ele>549.05</ele>
        <time>2013-07-24T16:15:43Z</time>
      </trkpt>
      <trkpt lat="46.61415" lon="5.84856">
        <ele>548.57</ele>
        <time>2013-07-24T16:15:57Z</time>
      </trkpt>
      <trkpt lat="46.61414" lon="5.84845">
        <ele>547.61</ele>
        <time>2013-07-24T16:16:09Z</time>
      </trkpt>
      <trkpt lat="46.61422" lon="5.84827">
        <ele>547.13</ele>
        <time>2013-07-24T16:16:23Z</time>
      </trkpt>
      <trkpt lat="46.61429" lon="5.8482">
        <ele>547.13</ele>
        <time>2013-07-24T16:16:29Z</time>
      </trkpt>
      <trkpt lat="46.6144" lon="5.84807">
        <ele>546.17</ele>
        <time>2013-07-24T16:16:43Z</time>
      </trkpt>
      <trkpt lat="46.61446" lon="5.84789">
        <ele>546.17</ele>
        <time>2013-07-24T16:16:56Z</time>
      </trkpt>
      <trkpt lat="46.61447" lon="5.84769">
        <ele>545.2</ele>
        <time>2013-07-24T16:17:07Z</time>
      </trkpt>
      <trkpt lat="46.61458" lon="5.84746">
        <ele>545.69</ele>
        <time>2013-07-24T16:17:21Z</time>
      </trkpt>
      <trkpt lat="46.61449" lon="5.84736">
        <ele>545.2</ele>
        <time>2013-07-24T16:17:40Z</time>
      </trkpt>
      <trkpt lat="46.61444" lon="5.84739">
        <ele>544.24</ele>
        <time>2013-07-24T16:18:02Z</time>
      </trkpt>
      <trkpt lat="46.61437" lon="5.84737">
        <ele>543.76</ele>
        <time>2013-07-24T16:18:40Z</time>
      </trkpt>
      <trkpt lat="46.6144" lon="5.84739">
        <ele>544.24</ele>
        <time>2013-07-24T16:19:14Z</time>
      </trkpt>
    </trkseg>
  </trk>
</gpx>